M I D A S
Marine Information and Data Acquisition System
Tripno 2213 of the Zeeleeuw from 2011-11-07 06:15:27 to 2011-11-07 18:42:37
Back to CruiseResearch ActivitiesStationsMapUnderway DataData graphs

EquipmentUnitsComment
TimeDGPSUTC
LatitudeDGPSDM.mWGS84
LongitudeDGPSDM.mWGS84
TemperatureSBE03/SBE38deg celciusITS90
ConductivitySBE21S/mITS90
SalinitySBE21 Practical Salinity Units
ChlorophylAChelsea fluorimeterg/lCalibrated in Aceton
Missing or incorrect values are displayed as -999
Sea surface data collected by the RV Zeeleeuw from 2011-11-07 06:05:50 to 2011-11-07 18:51:56
                                                                                    Next 1000 lines
Time Latitude Longitude Temperature Conductivity Salinity ChlorophylA
2011-11-07 06:06:01 51°13.634 2°56.019 18.5872 1.126432 6.408517 -3.020363
2011-11-07 06:06:05 51°13.634 2°56.019 18.5718 1.126535 6.40925 -3.020363
2011-11-07 06:06:10 51°13.634 2°56.019 18.5815 1.126226 6.407355 -3.020363
2011-11-07 06:06:15 51°13.634 2°56.018 18.5984 1.125814 6.404827 -3.020363
2011-11-07 06:06:21 51°13.634 2°56.018 18.5998 1.125814 6.404827 -3.020363
2011-11-07 06:06:25 51°13.634 2°56.018 18.5937 1.125711 6.404195 -3.020363
2011-11-07 06:06:30 51°13.634 2°56.018 18.5837 1.126535 6.40925 -3.020363
2011-11-07 06:06:36 51°13.633 2°56.018 18.5735 1.126329 6.407987 -3.020363
2011-11-07 06:06:41 51°13.633 2°56.018 18.5738 1.126535 6.409352 -3.020363
2011-11-07 06:06:45 51°13.633 2°56.018 18.5709 1.128493 6.421259 -3.020363
2011-11-07 06:06:51 51°13.633 2°56.018 18.5171 1.128493 6.421259 -3.020363
2011-11-07 06:06:55 51°13.633 2°56.018 18.4408 1.131481 6.439693 -3.020363
2011-11-07 06:07:01 51°13.633 2°56.016 18.3263 1.132923 6.448646 -3.020363
2011-11-07 06:07:05 51°13.633 2°56.015 18.4375 1.140444 6.494821 -3.020363
2011-11-07 06:07:11 51°13.634 2°56.011 18.397 1.14199 6.504415 -3.020363
2011-11-07 06:07:16 51°13.635 2°56.006 18.4749 1.141887 6.503782 -3.020363
2011-11-07 06:07:21 51°13.636 2°56.001 18.4777 1.141887 6.503782 -3.020363
2011-11-07 06:07:26 51°13.637 2°55.994 18.4691 1.142093 6.505048 -3.020363
2011-11-07 06:07:33 51°13.639 2°55.983 18.5147 1.141475 6.501251 -3.020363
2011-11-07 06:07:38 51°13.641 2°55.975 18.5541 1.145802 6.527936 -3.020363
2011-11-07 06:07:44 51°13.643 2°55.964 18.5403 1.142196 6.505681 -3.020363
2011-11-07 06:07:49 51°13.645 2°55.954 18.5382 1.142299 6.506314 -3.020363
2011-11-07 06:07:54 51°13.647 2°55.945 18.537 1.142299 6.506314 -3.020363
2011-11-07 06:07:59 51°13.648 2°55.936 18.5388 1.136735 6.47225 -3.020363
2011-11-07 06:08:03 51°13.65 2°55.929 18.5499 1.136323 6.46972 -3.020363
2011-11-07 06:08:09 51°13.652 2°55.918 18.5219 1.136838 6.472985 -3.020363
2011-11-07 06:08:14 51°13.655 2°55.908 18.5219 1.131687 6.441364 -3.020363
2011-11-07 06:08:19 51°13.658 2°55.899 18.518 1.132717 6.447788 -3.020363
2011-11-07 06:08:24 51°13.66 2°55.889 18.5409 1.132717 6.447788 -3.020363
2011-11-07 06:08:29 51°13.664 2°55.88 18.538 1.131893 6.442832 -3.020363
2011-11-07 06:08:34 51°13.667 2°55.87 18.5463 1.132614 6.447156 -3.020363
2011-11-07 06:08:39 51°13.671 2°55.86 18.5305 1.132923 6.449155 -3.020363
2011-11-07 06:08:44 51°13.675 2°55.85 18.539 1.142814 6.509991 -3.020363
2011-11-07 06:08:49 51°13.68 2°55.84 18.5623 1.140032 6.492905 -3.020363
2011-11-07 06:08:54 51°13.684 2°55.83 18.5648 1.140032 6.492905 -3.020363
2011-11-07 06:08:59 51°13.689 2°55.82 18.5715 1.142917 6.510624 -3.020363
2011-11-07 06:09:04 51°13.694 2°55.811 18.5709 1.146523 6.532883 -3.020363
2011-11-07 06:09:09 51°13.699 2°55.801 18.564 1.155281 6.586719 -3.020363
2011-11-07 06:09:14 51°13.704 2°55.791 18.5626 1.155281 6.586823 -3.020363
2011-11-07 06:09:18 51°13.708 2°55.784 18.5818 1.13076 6.436181 -3.020363
2011-11-07 06:09:23 51°13.714 2°55.774 18.557 1.13076 6.436181 -3.020363
2011-11-07 06:09:29 51°13.72 2°55.763 18.558 1.131584 6.441341 -3.020363
2011-11-07 06:09:34 51°13.725 2°55.753 18.5697 1.129214 6.4269 -3.020363
2011-11-07 06:09:39 51°13.73 2°55.744 18.5841 1.132305 6.445869 -3.020363
2011-11-07 06:09:44 51°13.736 2°55.735 18.5841 1.130038 6.431958 -3.020363
2011-11-07 06:09:49 51°13.741 2°55.726 18.584 1.129523 6.428797 -3.020363
2011-11-07 06:09:54 51°13.747 2°55.718 18.5652 1.129523 6.428797 -3.020363
2011-11-07 06:09:59 51°13.752 2°55.71 18.5633 1.130347 6.433957 -3.020363
2011-11-07 06:10:04 51°13.758 2°55.703 18.5733 1.130141 6.432692 -3.020363
2011-11-07 06:10:09 51°13.764 2°55.696 18.5915 1.129317 6.427634 -3.020363
2011-11-07 06:10:14 51°13.771 2°55.689 18.5821 1.132614 6.447868 -3.020363
2011-11-07 06:10:19 51°13.777 2°55.683 18.5823 1.132511 6.447236 -3.020363
2011-11-07 06:10:24 51°13.783 2°55.677 18.5659 1.132511 6.447236 -3.020363
2011-11-07 06:10:29 51°13.789 2°55.671 18.5739 1.132305 6.446073 -3.020363
2011-11-07 06:10:34 51°13.795 2°55.666 18.5817 1.134263 6.458192 -3.020363
2011-11-07 06:10:39 51°13.802 2°55.661 18.5861 1.132923 6.449969 -3.020363
2011-11-07 06:10:44 51°13.808 2°55.657 18.5616 1.134572 6.460293 -3.020363
2011-11-07 06:10:49 51°13.815 2°55.653 18.5738 1.134263 6.458396 -3.020363
2011-11-07 06:10:54 51°13.821 2°55.649 18.5757 1.134263 6.458396 -3.020363
2011-11-07 06:10:59 51°13.827 2°55.645 18.5508 1.134778 6.46166 -3.020363
2011-11-07 06:11:04 51°13.834 2°55.641 18.4791 1.131687 6.442787 -3.020363
2011-11-07 06:11:09 51°13.841 2°55.638 18.5445 1.132923 6.450376 -3.020363
2011-11-07 06:11:14 51°13.848 2°55.635 18.5208 1.131893 6.444052 -3.020363
2011-11-07 06:11:19 51°13.855 2°55.632 18.5281 1.127257 6.415699 -3.020363
2011-11-07 06:11:24 51°13.862 2°55.631 18.5251 1.127257 6.415699 -3.020363
2011-11-07 06:11:29 51°13.869 2°55.629 18.567 1.12942 6.429078 -3.020363
2011-11-07 06:11:34 51°13.876 2°55.627 18.5601 1.12736 6.416432 -3.020363
2011-11-07 06:11:39 51°13.883 2°55.626 18.577 1.128081 6.420858 -3.020363
2011-11-07 06:11:44 51°13.89 2°55.626 18.5666 1.126432 6.410844 -3.020363
2011-11-07 06:11:49 51°13.897 2°55.626 18.5667 1.126535 6.411577 -3.020363
2011-11-07 06:11:54 51°13.904 2°55.626 18.5643 1.126535 6.411577 -3.020363
2011-11-07 06:11:59 51°13.91 2°55.627 18.5563 1.126638 6.412209 -3.020363
2011-11-07 06:12:04 51°13.916 2°55.629 18.5509 1.127978 6.42053 -3.020363
2011-11-07 06:12:09 51°13.923 2°55.63 18.5533 1.130554 6.43644 -3.020363
2011-11-07 06:12:14 51°13.928 2°55.632 18.6065 1.124166 6.397341 -3.020363
2011-11-07 06:12:19 51°13.934 2°55.635 18.5488 1.12736 6.41704 -3.020363
2011-11-07 06:12:24 51°13.939 2°55.637 18.5378 1.12736 6.41704 -3.020363
2011-11-07 06:12:29 51°13.944 2°55.64 18.5195 1.125814 6.407658 -3.020363
2011-11-07 06:12:34 51°13.949 2°55.643 18.5287 1.12602 6.409023 -3.020363
2011-11-07 06:12:40 51°13.954 2°55.647 18.5435 1.12602 6.409125 -3.020363
2011-11-07 06:12:43 51°13.957 2°55.648 18.6225 1.124475 6.399743 -3.020363
2011-11-07 06:12:49 51°13.961 2°55.652 18.5876 1.133335 6.454231 -3.020363
2011-11-07 06:12:54 51°13.964 2°55.654 18.6257 1.133335 6.454231 -3.020363
2011-11-07 06:12:59 51°13.965 2°55.655 18.6208 1.124784 6.40174 -3.020363
2011-11-07 06:13:04 51°13.966 2°55.655 18.6027 1.120766 6.37719 -3.020363
2011-11-07 06:13:08 51°13.966 2°55.654 18.5378 1.120045 6.372766 -3.020363
2011-11-07 06:13:13 51°13.966 2°55.653 18.4966 1.122002 6.384875 -3.020363
2011-11-07 06:13:18 51°13.966 2°55.65 18.4519 1.121693 6.382979 -3.020363
2011-11-07 06:13:23 51°13.966 2°55.647 18.3871 1.121693 6.382979 -3.020363
2011-11-07 06:13:28 51°13.966 2°55.643 18.2713 1.123342 6.393193 -3.020363
2011-11-07 06:13:32 51°13.966 2°55.64 18.3073 1.122414 6.387605 -3.020363
2011-11-07 06:13:37 51°13.966 2°55.635 18.329 1.122002 6.385177 -3.020363
2011-11-07 06:13:42 51°13.967 2°55.629 18.2349 1.123548 6.394861 -3.020363
2011-11-07 06:13:47 51°13.968 2°55.623 18.3685 1.12293 6.39127 -3.020363
2011-11-07 06:13:52 51°13.97 2°55.617 18.432 1.12293 6.39127 -3.020363
2011-11-07 06:13:57 51°13.972 2°55.61 18.4595 1.122414 6.38821 -3.020363
2011-11-07 06:14:02 51°13.974 2°55.602 18.4328 1.124166 6.39916 -3.020363
2011-11-07 06:14:07 51°13.978 2°55.593 18.4428 1.125093 6.404952 -3.020363
2011-11-07 06:14:13 51°13.983 2°55.583 18.4561 1.120869 6.379232 -3.020363
2011-11-07 06:14:17 51°13.986 2°55.576 18.4358 1.121384 6.382393 -3.020363
2011-11-07 06:14:22 51°13.991 2°55.566 18.415 1.121384 6.382393 -3.020363
2011-11-07 06:14:27 51°13.997 2°55.556 18.3974 1.125402 6.407253 -3.020363
2011-11-07 06:14:32 51°14.003 2°55.545 18.2915 1.121178 6.38133 -3.020363
2011-11-07 06:14:37 51°14.009 2°55.534 18.2016 1.124475 6.401663 -3.020363
2011-11-07 06:14:41 51°14.015 2°55.525 18.2292 1.121796 6.385224 -3.020363
2011-11-07 06:14:46 51°14.023 2°55.515 18.1951 1.121384 6.382695 -3.020363
2011-11-07 06:14:51 51°14.032 2°55.503 18.2204 1.121384 6.382695 -3.020363
2011-11-07 06:14:56 51°14.041 2°55.493 18.3235 1.130966 6.441512 -3.020363
2011-11-07 06:15:01 51°14.05 2°55.483 18.2981 1.128802 6.428328 -3.020363
2011-11-07 06:15:05 51°14.058 2°55.475 18.3236 1.123651 6.396706 -3.020363
2011-11-07 06:15:10 51°14.069 2°55.465 18.3298 1.125402 6.407456 -3.020363
2011-11-07 06:15:15 51°14.08 2°55.456 18.3217 1.127051 6.417676 -3.020363
2011-11-07 06:15:21 51°14.093 2°55.445 18.2519 1.127051 6.417676 -3.020363
2011-11-07 06:15:25 51°14.102 2°55.437 18.275 1.128699 6.427899 -3.020363
2011-11-07 06:15:30 51°14.114 2°55.428 18.3678 1.123239 6.394378 -3.020363
2011-11-07 06:15:35 51°14.125 2°55.418 18.1243 1.133335 6.456474 -3.020363
2011-11-07 06:15:41 51°14.139 2°55.406 18.2606 1.125711 6.409758 -3.020363
2011-11-07 06:15:46 51°14.151 2°55.396 18.2986 1.140547 6.500994 -3.020363
2011-11-07 06:15:51 51°14.163 2°55.387 18.3116 1.140547 6.500994 -3.020363
2011-11-07 06:15:58 51°14.179 2°55.373 18.213 1.130966 6.442326 -3.020363
2011-11-07 06:16:02 51°14.189 2°55.365 18.1981 1.132305 6.450553 -3.020363
2011-11-07 06:16:08 51°14.203 2°55.353 18.2151 1.134572 6.464579 -3.020363
2011-11-07 06:16:14 51°14.218 2°55.341 18.2972 1.119839 6.374119 -3.020363
2011-11-07 06:16:19 51°14.229 2°55.331 18.291 1.158475 6.611686 -3.020363
2011-11-07 06:16:24 51°14.241 2°55.321 18.305 1.158475 6.611686 -3.020363
2011-11-07 06:16:29 51°14.253 2°55.311 18.3303 1.139723 6.496441 -3.020363
2011-11-07 06:16:34 51°14.264 2°55.3 18.1884 1.125402 6.408468 -3.020363
2011-11-07 06:16:39 51°14.275 2°55.288 18.2506 1.137972 6.485676 -3.020363
2011-11-07 06:16:44 51°14.286 2°55.276 18.1567 1.153736 6.582827 -3.020363
2011-11-07 06:16:49 51°14.297 2°55.265 18.1427 1.127669 6.422587 -3.020363
2011-11-07 06:16:54 51°14.308 2°55.252 18.2277 1.127669 6.422587 -3.020363
2011-11-07 06:16:59 51°14.319 2°55.239 18.1927 1.145905 6.534758 -3.020363
2011-11-07 06:17:04 51°14.33 2°55.227 18.1988 1.13519 6.46899 -3.020363
2011-11-07 06:17:09 51°14.341 2°55.214 18.2532 1.121075 6.382311 -3.020363
2011-11-07 06:17:14 51°14.352 2°55.201 18.2575 1.156002 6.59709 -3.020363
2011-11-07 06:17:19 51°14.362 2°55.188 18.1389 1.155178 6.592225 -3.020363
2011-11-07 06:17:24 51°14.373 2°55.175 18.1239 1.155178 6.592225 -3.020363
2011-11-07 06:17:29 51°14.384 2°55.162 18.2283 1.131996 6.449673 -3.020363
2011-11-07 06:17:34 51°14.394 2°55.151 18.1399 1.131172 6.444508 -3.020363
2011-11-07 06:17:38 51°14.403 2°55.141 18.1104 1.252039 7.191096 -3.020363
2011-11-07 06:17:43 51°14.413 2°55.13 18.1631 1.153942 6.585032 -3.020363
2011-11-07 06:17:48 51°14.423 2°55.118 18.2235 1.133335 6.458208 -3.020363
2011-11-07 06:17:53 51°14.433 2°55.106 18.2416 1.133335 6.458208 -3.020363
2011-11-07 06:17:58 51°14.443 2°55.093 18.208 1.184131 6.771184 -3.020363
2011-11-07 06:18:03 51°14.454 2°55.081 18.1672 1.131893 6.449754 -3.020363
2011-11-07 06:18:07 51°14.462 2°55.072 18.1715 1.132099 6.45102 -3.020363
2011-11-07 06:18:13 51°14.475 2°55.057 18.0967 1.248638 7.170683 -3.020363
2011-11-07 06:18:18 51°14.485 2°55.045 18.1436 1.163936 6.647307 -3.020363
2011-11-07 06:18:24 51°14.498 2°55.031 18.1645 1.163936 6.647307 -3.020363
2011-11-07 06:18:28 51°14.506 2°55.02 18.1422 1.12293 6.395007 -3.020363
2011-11-07 06:18:33 51°14.516 2°55.006 18.2227 1.165275 6.655454 -3.020363
2011-11-07 06:18:38 51°14.525 2°54.99 18.1936 1.139723 6.498391 -3.020363
2011-11-07 06:18:43 51°14.533 2°54.972 18.1574 1.134469 6.465989 -3.020363
2011-11-07 06:18:48 51°14.541 2°54.954 18.1334 1.143432 6.520994 -3.020363
2011-11-07 06:18:53 51°14.55 2°54.936 18.1442 1.143432 6.520994 -3.020363
2011-11-07 06:18:57 51°14.558 2°54.923 18.1103 1.192993 6.82642 -3.020363
2011-11-07 06:19:02 51°14.568 2°54.906 18.1064 1.143226 6.519933 -3.020363
2011-11-07 06:19:07 51°14.579 2°54.891 18.1447 1.155384 6.595057 -3.020363
2011-11-07 06:19:12 51°14.59 2°54.875 18.1556 1.130451 6.441503 -3.020363
2011-11-07 06:19:17 51°14.601 2°54.86 18.1718 1.257707 7.227406 -3.020363
2011-11-07 06:19:23 51°14.615 2°54.84 18.0929 1.257707 7.227406 -3.020363
2011-11-07 06:19:28 51°14.626 2°54.825 18.0847 1.171664 6.694612 -3.020363
2011-11-07 06:19:33 51°14.638 2°54.812 18.1515 1.282131 7.377167 -3.020363
2011-11-07 06:19:38 51°14.649 2°54.798 18.1954 1.236272 7.092116 -3.020363
2011-11-07 06:19:43 51°14.662 2°54.785 18.1902 1.17053 6.685724 -3.020363
2011-11-07 06:19:48 51°14.674 2°54.771 18.1448 1.158784 6.613171 -3.020363
2011-11-07 06:19:53 51°14.686 2°54.758 18.1725 1.158784 6.613171 -3.020363
2011-11-07 06:19:57 51°14.696 2°54.746 18.1462 1.154972 6.589916 -3.020363
2011-11-07 06:20:02 51°14.709 2°54.731 18.123 1.13519 6.468582 -3.020363
2011-11-07 06:20:07 51°14.722 2°54.716 18.1057 1.168676 6.675351 -3.020363
2011-11-07 06:20:12 51°14.734 2°54.7 18.1609 1.184749 6.775534 -3.020363
2011-11-07 06:20:18 51°14.748 2°54.681 18.1367 1.169191 6.679581 -3.020363
2011-11-07 06:20:22 51°14.758 2°54.668 18.1151 1.169191 6.679581 -3.020363
2011-11-07 06:20:27 51°14.771 2°54.653 16.9879 1.220918 6.999273 -3.020363
2011-11-07 06:20:32 51°14.784 2°54.639 16.3882 2.142186 12.897607 -3.020363
2011-11-07 06:20:37 51°14.797 2°54.623 15.5403 2.137953 12.863468 -3.020363
2011-11-07 06:20:42 51°14.809 2°54.609 14.8153 4.823376 31.691306 -3.020363
2011-11-07 06:20:46 51°14.819 2°54.596 14.1617 4.612312 31.527217 -3.020363
2011-11-07 06:20:52 51°14.834 2°54.578 13.8927 4.612312 31.527217 -3.020363
2011-11-07 06:20:56 51°14.844 2°54.565 13.7142 3.911097 27.01773 -3.020363
2011-11-07 06:21:01 51°14.857 2°54.55 13.6909 3.434008 24.471605 -3.020363
2011-11-07 06:21:06 51°14.87 2°54.536 13.4739 3.216382 23.347071 -3.020363
2011-11-07 06:21:11 51°14.884 2°54.523 13.3786 3.018085 22.240108 -3.020363
2011-11-07 06:21:17 51°14.9 2°54.508 13.334 2.972073 22.402123 -3.020363
2011-11-07 06:21:22 51°14.914 2°54.495 13.1751 2.972073 22.402123 -3.020363
2011-11-07 06:21:27 51°14.927 2°54.482 13.1716 2.933818 22.532161 -3.020363
2011-11-07 06:21:31 51°14.938 2°54.472 13.1268 2.905284 22.623967 -3.020363
2011-11-07 06:21:36 51°14.952 2°54.459 13.1642 2.877369 22.589863 -3.020363
2011-11-07 06:21:41 51°14.966 2°54.447 13.0385 2.83953 22.427243 -3.020363
2011-11-07 06:21:46 51°14.979 2°54.434 13.1136 2.813066 22.350798 -3.020363
2011-11-07 06:21:51 51°14.993 2°54.421 13.0799 2.813066 22.350798 -3.020363
2011-11-07 06:21:55 51°15.003 2°54.41 13.0531 2.77306 22.094348 -3.020363
2011-11-07 06:22:00 51°15.017 2°54.396 13.0085 3.015638 24.34306 -3.020363
2011-11-07 06:22:05 51°15.03 2°54.382 12.9554 4.422698 37.385927 -3.020363
2011-11-07 06:22:11 51°15.046 2°54.364 12.968 4.067886 34.129965 -3.020363
2011-11-07 06:22:16 51°15.059 2°54.349 12.9676 3.951711 33.093349 -3.020363
2011-11-07 06:22:20 51°15.069 2°54.338 12.9326 3.951711 33.093349 -3.020363
2011-11-07 06:22:25 51°15.082 2°54.323 12.955 3.866333 32.335565 -3.020363
2011-11-07 06:22:30 51°15.095 2°54.307 12.9508 3.83432 32.071746 -3.020363
2011-11-07 06:22:36 51°15.109 2°54.287 12.919 3.775998 31.567844 -3.020363
2011-11-07 06:22:40 51°15.119 2°54.274 12.954 3.740263 31.278158 -3.020363
2011-11-07 06:22:45 51°15.131 2°54.258 12.8927 3.716441 31.085116 -3.020363
2011-11-07 06:22:51 51°15.145 2°54.239 12.9019 3.716441 31.085116 -3.020363
2011-11-07 06:22:56 51°15.157 2°54.221 12.8846 3.704219 30.990158 -3.020363
2011-11-07 06:23:01 51°15.168 2°54.205 12.8744 3.69262 30.899547 -3.020363
2011-11-07 06:23:05 51°15.178 2°54.192 12.8848 3.684852 30.85075 -3.020363
2011-11-07 06:23:11 51°15.192 2°54.173 12.8898 3.682574 30.843347 -3.020363
2011-11-07 06:23:17 51°15.207 2°54.153 12.858 3.671078 30.739105 -3.020363
2011-11-07 06:23:22 51°15.219 2°54.136 12.8416 3.671078 30.739105 -3.020363
2011-11-07 06:23:26 51°15.229 2°54.122 12.8333 3.670975 30.757419 -3.020363
2011-11-07 06:23:31 51°15.241 2°54.105 12.8435 3.664554 30.707267 -3.020363
2011-11-07 06:23:36 51°15.254 2°54.088 12.8526 3.663208 30.709181 -3.020363
2011-11-07 06:23:41 51°15.266 2°54.071 12.8347 3.66414 30.724064 -3.020363
2011-11-07 06:23:46 51°15.279 2°54.055 12.8271 3.847067 32.451254 -3.020363
2011-11-07 06:23:50 51°15.289 2°54.042 12.832 3.847067 32.451254 -3.020363
2011-11-07 06:23:55 51°15.302 2°54.027 12.8207 3.844788 32.440769 -3.020363
2011-11-07 06:24:01 51°15.318 2°54.008 12.8239 3.843338 32.438071 -3.020363
2011-11-07 06:24:06 51°15.331 2°53.993 12.8283 3.842509 32.43757 -3.020363
2011-11-07 06:24:10 51°15.342 2°53.981 12.8216 3.84168 32.438529 -3.020363
2011-11-07 06:24:15 51°15.355 2°53.966 12.812 3.840955 32.441193 -3.020363
2011-11-07 06:24:21 51°15.37 2°53.949 12.8255 3.840955 32.441193 -3.020363
2011-11-07 06:24:26 51°15.384 2°53.934 12.8189 3.840541 32.440214 -3.020363
2011-11-07 06:24:31 51°15.397 2°53.919 12.8229 3.839919 32.443125 -3.020363
2011-11-07 06:24:36 51°15.41 2°53.903 12.8215 3.839712 32.444826 -3.020363
2011-11-07 06:24:41 51°15.423 2°53.887 12.831 3.839194 32.442142 -3.020363
2011-11-07 06:24:46 51°15.436 2°53.871 12.8041 3.839091 32.446279 -3.020363
2011-11-07 06:24:51 51°15.449 2°53.856 12.8135 3.839091 32.446279 -3.020363
2011-11-07 06:24:55 51°15.46 2°53.843 12.7911 3.839091 32.451393 -3.020363
2011-11-07 06:25:00 51°15.473 2°53.827 12.7987 3.839091 32.454316 -3.020363
2011-11-07 06:25:06 51°15.488 2°53.808 12.8147 3.838987 32.455533 -3.020363
2011-11-07 06:25:11 51°15.501 2°53.791 12.8005 3.83878 32.454313 -3.020363
2011-11-07 06:25:15 51°15.51 2°53.778 12.8018 3.838366 32.454066 -3.020363
2011-11-07 06:25:20 51°15.523 2°53.761 12.8138 3.838366 32.454066 -3.020363
2011-11-07 06:25:25 51°15.535 2°53.744 12.7941 3.838469 32.458697 -3.020363
2011-11-07 06:25:31 51°15.55 2°53.723 12.8006 3.838366 32.464304 -3.020363
2011-11-07 06:25:35 51°15.559 2°53.71 12.797 3.838469 32.470401 -3.020363
2011-11-07 06:25:42 51°15.573 2°53.687 12.7881 3.838573 32.472109 -3.020363
2011-11-07 06:25:47 51°15.585 2°53.67 12.8034 3.838677 32.473085 -3.020363
2011-11-07 06:25:52 51°15.595 2°53.653 12.7891 3.838677 32.473085 -3.020363
2011-11-07 06:25:57 51°15.606 2°53.636 12.812 3.839091 32.479917 -3.020363
2011-11-07 06:26:02 51°15.617 2°53.619 12.8013 3.840024 32.492365 -3.020363
2011-11-07 06:26:07 51°15.629 2°53.604 12.7877 3.840542 32.50091 -3.020363
2011-11-07 06:26:12 51°15.641 2°53.589 12.7741 3.84106 32.507991 -3.020363
2011-11-07 06:26:16 51°15.65 2°53.577 12.7842 3.841785 32.516293 -3.020363
2011-11-07 06:26:21 51°15.662 2°53.562 12.7771 3.841785 32.516293 -3.020363
2011-11-07 06:26:26 51°15.675 2°53.548 12.7712 3.842717 32.52655 -3.020363
2011-11-07 06:26:31 51°15.688 2°53.536 12.7727 3.843339 32.533144 -3.020363
2011-11-07 06:26:36 51°15.702 2°53.525 12.7866 3.844064 32.540715 -3.020363
2011-11-07 06:26:41 51°15.716 2°53.513 12.7776 3.8451 32.557092 -3.020363
2011-11-07 06:26:45 51°15.727 2°53.506 12.7827 3.846136 32.571271 -3.020363
2011-11-07 06:26:51 51°15.744 2°53.494 12.7883 3.846136 32.571271 -3.020363
2011-11-07 06:26:56 51°15.758 2°53.486 12.7694 3.846447 32.577877 -3.020363
2011-11-07 06:27:01 51°15.772 2°53.477 12.773 3.846758 32.58375 -3.020363
2011-11-07 06:27:06 51°15.786 2°53.469 12.7665 3.846862 32.585463 -3.020363
2011-11-07 06:27:12 51°15.803 2°53.459 12.7911 3.846551 32.580325 -3.020363
2011-11-07 06:27:16 51°15.814 2°53.453 12.7833 3.846654 32.582038 -3.020363
2011-11-07 06:27:21 51°15.827 2°53.445 12.7664 3.846654 32.582038 -3.020363
2011-11-07 06:27:26 51°15.841 2°53.437 12.7661 3.846654 32.582038 -3.020363
2011-11-07 06:27:31 51°15.855 2°53.428 12.7675 3.846758 32.58375 -3.020363
2011-11-07 06:27:36 51°15.869 2°53.418 12.7555 3.846965 32.590854 -3.020363
2011-11-07 06:27:41 51°15.882 2°53.408 12.7569 3.847069 32.594774 -3.020363
2011-11-07 06:27:45 51°15.893 2°53.4 12.7773 3.846551 32.587679 -3.020363
2011-11-07 06:27:51 51°15.91 2°53.388 12.7667 3.846551 32.587679 -3.020363
2011-11-07 06:27:56 51°15.924 2°53.378 12.7564 3.846447 32.588172 -3.020363
2011-11-07 06:28:01 51°15.938 2°53.366 12.7557 3.84624 32.589895 -3.020363
2011-11-07 06:28:05 51°15.95 2°53.358 12.7541 3.845929 32.591376 -3.020363
2011-11-07 06:28:11 51°15.966 2°53.346 12.7496 3.845826 32.594078 -3.020363
2011-11-07 06:28:16 51°15.979 2°53.335 12.7614 3.845412 32.593846 -3.020363
2011-11-07 06:28:21 51°15.993 2°53.325 12.7537 3.845412 32.593846 -3.020363
2011-11-07 06:28:25 51°16.004 2°53.315 12.7489 3.84479 32.588713 -3.020363
2011-11-07 06:28:31 51°16.021 2°53.302 12.751 3.844272 32.586031 -3.020363
2011-11-07 06:28:36 51°16.035 2°53.291 12.7558 3.843443 32.580413 -3.020363
2011-11-07 06:28:41 51°16.049 2°53.28 12.7497 3.842407 32.574311 -3.020363
2011-11-07 06:28:45 51°16.06 2°53.271 12.737 3.841268 32.565022 -3.020363
2011-11-07 06:28:51 51°16.076 2°53.258 12.7364 3.841268 32.565022 -3.020363
2011-11-07 06:28:56 51°16.09 2°53.246 12.7507 3.840335 32.556953 -3.020363
2011-11-07 06:29:01 51°16.103 2°53.235 12.7478 3.83961 32.551577 -3.020363
2011-11-07 06:29:05 51°16.114 2°53.226 12.7328 3.838989 32.547913 -3.020363
2011-11-07 06:29:11 51°16.131 2°53.213 12.7284 3.838056 32.538374 -3.020363
2011-11-07 06:29:15 51°16.141 2°53.205 12.7498 3.837538 32.536423 -3.020363
2011-11-07 06:29:21 51°16.157 2°53.194 12.7423 3.837538 32.536423 -3.020363
2011-11-07 06:29:26 51°16.17 2°53.184 12.7416 3.837124 32.535451 -3.020363
2011-11-07 06:29:31 51°16.183 2°53.174 12.7438 3.836502 32.531051 -3.020363
2011-11-07 06:29:36 51°16.196 2°53.164 12.7313 3.835777 32.523468 -3.020363
2011-11-07 06:29:41 51°16.209 2°53.154 12.7212 3.83557 32.525187 -3.020363
2011-11-07 06:29:45 51°16.22 2°53.147 12.7224 3.835363 32.525435 -3.020363
2011-11-07 06:29:51 51°16.237 2°53.135 12.7302 3.835363 32.525435 -3.020363
2011-11-07 06:29:56 51°16.251 2°53.125 12.7281 3.835052 32.520295 -3.020363
2011-11-07 06:30:01 51°16.265 2°53.115 12.7278 3.834845 32.519808 -3.020363
2011-11-07 06:30:05 51°16.276 2°53.107 12.7413 3.834638 32.520056 -3.020363
2011-11-07 06:30:10 51°16.29 2°53.096 12.7276 3.834741 32.524711 -3.020363
2011-11-07 06:30:16 51°16.306 2°53.083 12.7293 3.834741 32.529124 -3.020363
2011-11-07 06:30:21 51°16.32 2°53.072 12.7368 3.834741 32.529124 -3.020363
2011-11-07 06:30:25 51°16.331 2°53.063 12.7334 3.834534 32.529373 -3.020363
2011-11-07 06:30:30 51°16.345 2°53.052 12.7245 3.83443 32.527658 -3.020363
2011-11-07 06:30:36 51°16.362 2°53.038 12.7319 3.834534 32.529373 -3.020363
2011-11-07 06:30:41 51°16.376 2°53.027 12.7145 3.834534 32.528637 -3.020363
2011-11-07 06:30:45 51°16.387 2°53.017 12.7135 3.834534 32.528637 -3.020363
2011-11-07 06:30:49 51°16.398 2°53.007 12.7126 3.834534 32.528637 -3.020363
2011-11-07 06:30:55 51°16.415 2°52.992 12.7152 3.834638 32.530352 -3.020363
2011-11-07 06:31:01 51°16.43 2°52.977 12.7267 3.834845 32.530838 -3.020363
2011-11-07 06:31:05 51°16.441 2°52.967 12.7341 3.835259 32.536225 -3.020363
2011-11-07 06:31:11 51°16.457 2°52.952 12.7159 3.835259 32.539168 -3.020363
2011-11-07 06:31:15 51°16.468 2°52.942 12.7166 3.835467 32.544806 -3.020363
2011-11-07 06:31:21 51°16.484 2°52.926 12.7139 3.835467 32.544806 -3.020363
2011-11-07 06:31:25 51°16.495 2°52.916 12.7278 3.835467 32.547751 -3.020363
2011-11-07 06:31:31 51°16.512 2°52.901 12.7132 3.835467 32.549223 -3.020363
2011-11-07 06:31:36 51°16.525 2°52.888 12.7185 3.835363 32.548981 -3.020363
2011-11-07 06:31:41 51°16.538 2°52.877 12.7229 3.835259 32.545793 -3.020363
2011-11-07 06:31:45 51°16.549 2°52.868 12.7195 3.835467 32.549223 -3.020363
2011-11-07 06:31:51 51°16.566 2°52.853 12.7285 3.835467 32.549223 -3.020363
2011-11-07 06:31:56 51°16.579 2°52.84 12.7204 3.835467 32.550696 -3.020363
2011-11-07 06:32:01 51°16.593 2°52.829 12.7016 3.835467 32.551433 -3.020363
2011-11-07 06:32:05 51°16.604 2°52.819 12.719 3.835467 32.551433 -3.020363
2011-11-07 06:32:11 51°16.621 2°52.806 12.7103 3.835467 32.551433 -3.020363
2011-11-07 06:32:16 51°16.634 2°52.794 12.7143 3.835363 32.55119 -3.020363
2011-11-07 06:32:21 51°16.647 2°52.782 12.7195 3.835363 32.55119 -3.020363
2011-11-07 06:32:25 51°16.658 2°52.773 12.7131 3.835363 32.55119 -3.020363
2011-11-07 06:32:30 51°16.672 2°52.762 12.7059 3.83557 32.553885 -3.020363
2011-11-07 06:32:36 51°16.688 2°52.749 12.7144 3.835881 32.559033 -3.020363
2011-11-07 06:32:41 51°16.701 2°52.739 12.7016 3.835985 32.563696 -3.020363
2011-11-07 06:32:45 51°16.711 2°52.73 12.7123 3.835985 32.563696 -3.020363
2011-11-07 06:32:51 51°16.725 2°52.719 12.703 3.835985 32.563696 -3.020363
2011-11-07 06:32:57 51°16.74 2°52.707 12.7147 3.835985 32.56296 -3.020363
2011-11-07 06:33:01 51°16.75 2°52.698 12.7119 3.835985 32.562223 -3.020363
2011-11-07 06:33:06 51°16.763 2°52.688 12.6929 3.836192 32.565655 -3.020363
2011-11-07 06:33:11 51°16.776 2°52.677 12.6939 3.836296 32.568109 -3.020363
2011-11-07 06:33:16 51°16.789 2°52.666 12.6966 3.836606 32.573997 -3.020363
2011-11-07 06:33:21 51°16.802 2°52.655 12.6889 3.836606 32.573997 -3.020363
2011-11-07 06:33:25 51°16.812 2°52.646 12.6917 3.836606 32.573259 -3.020363
2011-11-07 06:33:31 51°16.829 2°52.631 12.6916 3.836814 32.575956 -3.020363
2011-11-07 06:33:35 51°16.84 2°52.621 12.6896 3.836814 32.577431 -3.020363
2011-11-07 06:33:41 51°16.856 2°52.607 12.7066 3.837125 32.584058 -3.020363
2011-11-07 06:33:45 51°16.866 2°52.598 12.7055 3.837435 32.589948 -3.020363
2011-11-07 06:33:51 51°16.882 2°52.585 12.6946 3.837435 32.589948 -3.020363
2011-11-07 06:33:56 51°16.895 2°52.574 12.695 3.837643 32.594122 -3.020363
2011-11-07 06:34:01 51°16.908 2°52.563 12.6935 3.837746 32.596578 -3.020363
2011-11-07 06:34:05 51°16.919 2°52.554 12.6944 3.837953 32.599277 -3.020363
2011-11-07 06:34:11 51°16.935 2°52.541 12.6981 3.838161 32.601975 -3.020363
2011-11-07 06:34:16 51°16.948 2°52.531 12.6859 3.838161 32.600499 -3.020363
2011-11-07 06:34:21 51°16.962 2°52.52 12.6885 3.838161 32.600499 -3.020363
2011-11-07 06:34:25 51°16.972 2°52.511 12.694 3.838368 32.600244 -3.020363
2011-11-07 06:34:31 51°16.989 2°52.497 12.6923 3.838679 32.603923 -3.020363
2011-11-07 06:34:36 51°17.002 2°52.486 12.6926 3.838989 32.607601 -3.020363
2011-11-07 06:34:41 51°17.015 2°52.476 12.7006 3.839197 32.6103 -3.020363
2011-11-07 06:34:45 51°17.026 2°52.469 12.7048 3.839507 32.613979 -3.020363
2011-11-07 06:34:50 51°17.04 2°52.46 12.7028 3.839507 32.613979 -3.020363
2011-11-07 06:34:56 51°17.056 2°52.451 12.6996 3.839818 32.620613 -3.020363
2011-11-07 06:35:01 51°17.069 2°52.443 12.7084 3.840025 32.624051 -3.020363
2011-11-07 06:35:06 51°17.082 2°52.436 12.6974 3.840025 32.624051 -3.020363
2011-11-07 06:35:11 51°17.096 2°52.429 12.6935 3.840129 32.624292 -3.020363
2011-11-07 06:35:16 51°17.109 2°52.422 12.693 3.840129 32.620598 -3.020363
2011-11-07 06:35:21 51°17.122 2°52.415 12.6925 3.840129 32.620598 -3.020363
2011-11-07 06:35:25 51°17.133 2°52.409 12.6932 3.840233 32.620101 -3.020363
2011-11-07 06:35:31 51°17.149 2°52.402 12.6932 3.84044 32.6228 -3.020363
2011-11-07 06:35:35 51°17.16 2°52.397 12.6884 3.84044 32.6228 -3.020363
2011-11-07 06:35:41 51°17.176 2°52.391 12.6872 3.84044 32.6228 -3.020363
2011-11-07 06:35:45 51°17.188 2°52.387 12.6819 3.840543 32.625258 -3.020363
2011-11-07 06:35:51 51°17.204 2°52.382 12.6841 3.840543 32.625258 -3.020363
2011-11-07 06:35:56 51°17.219 2°52.377 12.6927 3.840854 32.630416 -3.020363
2011-11-07 06:36:01 51°17.233 2°52.372 12.6863 3.841062 32.634594 -3.020363
2011-11-07 06:36:05 51°17.244 2°52.37 12.6873 3.825936 32.491501 -3.020363
2011-11-07 06:36:11 51°17.261 2°52.366 12.6866 3.795583 32.205352 -3.020363
2011-11-07 06:36:16 51°17.275 2°52.363 12.6811 3.795065 32.202647 -3.020363
2011-11-07 06:36:21 51°17.289 2°52.361 12.6933 3.795065 32.202647 -3.020363
2011-11-07 06:36:25 51°17.3 2°52.359 12.6916 3.794236 32.197736 -3.020363
2011-11-07 06:36:31 51°17.316 2°52.357 12.6926 3.795169 32.206543 -3.020363
2011-11-07 06:36:36 51°17.33 2°52.355 12.6852 3.795997 32.214372 -3.020363
2011-11-07 06:36:41 51°17.344 2°52.353 12.6815 3.795272 32.206792 -3.020363
2011-11-07 06:36:45 51°17.355 2°52.353 12.6806 3.795687 32.210707 -3.020363
2011-11-07 06:36:50 51°17.37 2°52.352 12.6792 3.795687 32.210707 -3.020363
2011-11-07 06:36:56 51°17.387 2°52.351 12.6837 3.795583 32.208999 -3.020363
2011-11-07 06:37:01 51°17.401 2°52.35 12.6801 3.796205 32.216329 -3.020363
2011-11-07 06:37:05 51°17.413 2°52.347 12.677 3.79693 32.22245 -3.020363
2011-11-07 06:37:09 51°17.425 2°52.346 12.6802 3.796515 32.219995 -3.020363
2011-11-07 06:37:15 51°17.442 2°52.342 12.6807 3.796515 32.221455 -3.020363
2011-11-07 06:37:21 51°17.46 2°52.34 12.6776 3.796515 32.221455 -3.020363
2011-11-07 06:37:25 51°17.472 2°52.337 12.6807 3.79693 32.22756 -3.020363
2011-11-07 06:37:31 51°17.49 2°52.334 12.676 3.797448 32.233914 -3.020363
2011-11-07 06:37:35 51°17.502 2°52.332 12.6858 3.797137 32.232438 -3.020363
2011-11-07 06:37:41 51°17.519 2°52.331 12.6789 3.797137 32.233899 -3.020363
2011-11-07 06:37:45 51°17.531 2°52.33 12.675 3.79693 32.231941 -3.020363
2011-11-07 06:37:51 51°17.548 2°52.329 12.6724 3.79693 32.231941 -3.020363
2011-11-07 06:37:56 51°17.562 2°52.328 12.6733 3.798484 32.247356 -3.020363
2011-11-07 06:38:01 51°17.576 2°52.326 12.6916 3.797448 32.236836 -3.020363
2011-11-07 06:38:05 51°17.587 2°52.325 12.6797 3.797344 32.235857 -3.020363
2011-11-07 06:38:10 51°17.601 2°52.324 12.678 3.797137 32.233168 -3.020363
2011-11-07 06:38:16 51°17.618 2°52.323 12.6737 3.797966 32.241731 -3.020363
2011-11-07 06:38:21 51°17.632 2°52.32 12.6743 3.797966 32.241731 -3.020363
2011-11-07 06:38:25 51°17.643 2°52.318 12.6742 3.797655 32.240985 -3.020363
2011-11-07 06:38:31 51°17.661 2°52.315 12.6705 3.798587 32.251258 -3.020363
2011-11-07 06:38:35 51°17.672 2°52.313 12.6759 3.789368 32.162675 -3.020363
2011-11-07 06:38:41 51°17.69 2°52.311 12.6774 3.78885 32.157053 -3.020363
2011-11-07 06:38:45 51°17.701 2°52.309 12.6797 3.788954 32.160946 -3.020363
2011-11-07 06:38:51 51°17.719 2°52.308 12.6742 3.788954 32.160946 -3.020363
2011-11-07 06:38:56 51°17.733 2°52.308 12.6772 3.789679 32.169255 -3.020363
2011-11-07 06:39:01 51°17.746 2°52.309 12.6728 3.788954 32.163132 -3.020363
2011-11-07 06:39:05 51°17.757 2°52.31 12.6753 3.789472 32.168755 -3.020363
2011-11-07 06:39:11 51°17.775 2°52.312 12.6885 3.789264 32.166069 -3.020363
2011-11-07 06:39:16 51°17.789 2°52.314 12.6769 3.78885 32.161425 -3.020363
2011-11-07 06:39:21 51°17.802 2°52.317 12.6786 3.78885 32.161425 -3.020363
2011-11-07 06:39:25 51°17.814 2°52.319 12.6819 3.789161 32.162903 -3.020363
2011-11-07 06:39:31 51°17.831 2°52.324 12.6841 3.789057 32.161196 -3.020363
2011-11-07 06:39:36 51°17.844 2°52.328 12.6733 3.78885 32.160696 -3.020363
2011-11-07 06:39:41 51°17.858 2°52.334 12.6753 3.789161 32.163632 -3.020363
2011-11-07 06:39:45 51°17.869 2°52.339 12.682 3.78885 32.159238 -3.020363
2011-11-07 06:39:51 51°17.885 2°52.348 12.6834 3.78885 32.159238 -3.020363
2011-11-07 06:39:56 51°17.898 2°52.356 12.6762 3.789679 32.16634 -3.020363
2011-11-07 06:40:01 51°17.911 2°52.365 12.6799 3.788643 32.155824 -3.020363
2011-11-07 06:40:05 51°17.921 2°52.373 12.6789 3.788953 32.158031 -3.020363
2011-11-07 06:40:10 51°17.934 2°52.382 12.6864 3.788539 32.155574 -3.020363
2011-11-07 06:40:16 51°17.949 2°52.394 12.6719 3.789471 32.164382 -3.020363
2011-11-07 06:40:21 51°17.962 2°52.404 12.674 3.789471 32.164382 -3.020363
2011-11-07 06:40:25 51°17.972 2°52.412 12.6788 3.788125 32.151659 -3.020363
2011-11-07 06:40:31 51°17.987 2°52.423 12.6834 3.788021 32.15068 -3.020363
2011-11-07 06:40:35 51°17.997 2°52.431 12.6825 3.787918 32.15043 -3.020363
2011-11-07 06:40:41 51°18.013 2°52.443 12.6745 3.787814 32.150908 -3.020363
2011-11-07 06:40:45 51°18.023 2°52.449 12.6729 3.788021 32.152866 -3.020363
2011-11-07 06:40:50 51°18.035 2°52.461 12.6723 3.788021 32.152866 -3.020363
2011-11-07 06:40:56 51°18.048 2°52.473 12.6745 3.824693 32.500355 -3.020363
2011-11-07 06:41:01 51°18.06 2°52.483 12.6837 3.824486 32.499867 -3.020363
2011-11-07 06:41:06 51°18.071 2°52.494 12.6753 3.824382 32.49815 -3.020363
2011-11-07 06:41:12 51°18.084 2°52.507 12.6803 3.824175 32.494716 -3.020363
2011-11-07 06:41:17 51°18.094 2°52.519 12.6832 3.824072 32.494473 -3.020363
2011-11-07 06:41:22 51°18.105 2°52.53 12.6808 3.824072 32.494473 -3.020363
2011-11-07 06:41:26 51°18.113 2°52.54 12.6781 3.823864 32.493985 -3.020363
2011-11-07 06:41:31 51°18.124 2°52.554 12.6741 3.823761 32.493005 -3.020363
2011-11-07 06:41:36 51°18.134 2°52.569 12.6777 3.823657 32.491288 -3.020363
2011-11-07 06:41:41 51°18.143 2°52.585 12.6718 3.823554 32.488835 -3.020363
2011-11-07 06:41:45 51°18.151 2°52.599 12.6736 3.823346 32.486874 -3.020363
2011-11-07 06:41:50 51°18.16 2°52.616 12.6741 3.823346 32.486874 -3.020363
2011-11-07 06:41:55 51°18.168 2°52.634 12.6786 3.823243 32.485158 -3.020363
2011-11-07 06:42:01 51°18.178 2°52.657 12.6718 3.823139 32.484914 -3.020363
2011-11-07 06:42:05 51°18.184 2°52.673 12.6765 3.823036 32.486142 -3.020363
2011-11-07 06:42:11 51°18.192 2°52.696 12.6809 3.822932 32.486635 -3.020363
2011-11-07 06:42:15 51°18.197 2°52.713 12.6838 3.822932 32.486635 -3.020363
2011-11-07 06:42:21 51°18.205 2°52.738 12.6832 3.822932 32.486635 -3.020363
2011-11-07 06:42:25 51°18.21 2°52.755 12.6754 3.822518 32.483449 -3.020363
2011-11-07 06:42:31 51°18.219 2°52.778 12.6766 3.822518 32.482713 -3.020363
2011-11-07 06:42:36 51°18.225 2°52.799 12.6828 3.822207 32.480508 -3.020363
2011-11-07 06:42:41 51°18.232 2°52.819 12.6773 3.822103 32.479528 -3.020363
2011-11-07 06:42:45 51°18.237 2°52.836 12.6741 3.822 32.477812 -3.020363
2011-11-07 06:42:51 51°18.245 2°52.861 12.6774 3.822 32.477812 -3.020363
2011-11-07 06:42:56 51°18.251 2°52.882 12.675 3.821689 32.473399 -3.020363
2011-11-07 06:43:01 51°18.258 2°52.903 12.6752 3.821585 32.472418 -3.020363
2011-11-07 06:43:05 51°18.263 2°52.919 12.6715 3.821585 32.472418 -3.020363
2011-11-07 06:43:11 51°18.272 2°52.943 12.681 3.821585 32.472418 -3.020363
2011-11-07 06:43:16 51°18.279 2°52.962 12.6711 3.821482 32.472174 -3.020363
2011-11-07 06:43:21 51°18.287 2°52.981 12.6736 3.821482 32.472174 -3.020363
2011-11-07 06:43:25 51°18.293 2°52.997 12.6791 3.821275 32.471685 -3.020363
2011-11-07 06:43:31 51°18.303 2°53.02 12.6864 3.821275 32.472422 -3.020363
2011-11-07 06:43:36 51°18.311 2°53.039 12.6748 3.821067 32.471197 -3.020363
2011-11-07 06:43:41 51°18.32 2°53.056 12.6722 3.821171 32.472177 -3.020363
2011-11-07 06:43:45 51°18.326 2°53.072 12.6758 3.821171 32.472177 -3.020363
2011-11-07 06:43:50 51°18.335 2°53.091 12.6836 3.821171 32.472177 -3.020363
2011-11-07 06:43:56 51°18.344 2°53.114 12.6769 3.821171 32.47365 -3.020363
2011-11-07 06:44:01 51°18.353 2°53.133 12.6714 3.821378 32.474874 -3.020363
2011-11-07 06:44:05 51°18.359 2°53.149 12.6801 3.821378 32.473402 -3.020363
2011-11-07 06:44:11 51°18.369 2°53.173 12.671 3.821482 32.473646 -3.020363
2011-11-07 06:44:15 51°18.376 2°53.187 12.6729 3.821793 32.477323 -3.020363
2011-11-07 06:44:21 51°18.385 2°53.21 12.6812 3.821793 32.477323 -3.020363
2011-11-07 06:44:25 51°18.392 2°53.225 12.6732 3.822 32.479284 -3.020363
2011-11-07 06:44:31 51°18.403 2°53.247 12.6736 3.822311 32.481489 -3.020363
2011-11-07 06:44:36 51°18.411 2°53.266 12.6715 3.822518 32.484186 -3.020363
2011-11-07 06:44:41 51°18.419 2°53.286 12.6745 3.822725 32.486883 -3.020363
2011-11-07 06:44:45 51°18.426 2°53.301 12.6729 3.822932 32.48958 -3.020363
2011-11-07 06:44:50 51°18.434 2°53.319 12.675 3.822932 32.48958 -3.020363
2011-11-07 06:44:56 51°18.445 2°53.341 12.6715 3.823139 32.491541 -3.020363
2011-11-07 06:45:01 51°18.454 2°53.359 12.6717 3.823139 32.490805 -3.020363
2011-11-07 06:45:05 51°18.461 2°53.374 12.6779 3.82345 32.495219 -3.020363
2011-11-07 06:45:11 51°18.471 2°53.397 12.6706 3.823657 32.497917 -3.020363
2011-11-07 06:45:15 51°18.477 2°53.412 12.6772 3.823968 32.501595 -3.020363
2011-11-07 06:45:21 51°18.487 2°53.434 12.6707 3.823968 32.501595 -3.020363
2011-11-07 06:45:25 51°18.494 2°53.45 12.6736 3.824175 32.503556 -3.020363
2011-11-07 06:45:31 51°18.504 2°53.471 12.6734 3.82459 32.507479 -3.020363
2011-11-07 06:45:36 51°18.514 2°53.489 12.6704 3.824797 32.510177 -3.020363
2011-11-07 06:45:41 51°18.523 2°53.507 12.668 3.825108 32.512382 -3.020363
2011-11-07 06:45:45 51°18.529 2°53.522 12.6714 3.799002 32.266142 -3.020363
2011-11-07 06:45:51 51°18.54 2°53.542 12.6768 3.799002 32.266142 -3.020363
2011-11-07 06:45:56 51°18.548 2°53.559 12.677 3.800245 32.277897 -3.020363
2011-11-07 06:46:01 51°18.557 2°53.577 12.6812 3.801903 32.29357 -3.020363
2011-11-07 06:46:05 51°18.564 2°53.59 12.6827 3.801695 32.291611 -3.020363
2011-11-07 06:46:10 51°18.573 2°53.608 12.6714 3.802628 32.30116 -3.020363
2011-11-07 06:46:16 51°18.584 2°53.629 12.6761 3.804285 32.316835 -3.020363
2011-11-07 06:46:21 51°18.592 2°53.647 12.6807 3.804285 32.316835 -3.020363
2011-11-07 06:46:25 51°18.6 2°53.66 12.6711 3.805114 32.323941 -3.020363
2011-11-07 06:46:31 51°18.612 2°53.681 12.6725 3.803353 32.305821 -3.020363
2011-11-07 06:46:35 51°18.619 2°53.696 12.6746 3.802731 32.298479 -3.020363
2011-11-07 06:46:41 51°18.63 2°53.717 12.6778 3.803249 32.303376 -3.020363
2011-11-07 06:46:45 51°18.637 2°53.732 12.6825 3.803871 32.309254 -3.020363
2011-11-07 06:46:51 51°18.648 2°53.754 12.6736 3.803871 32.309254 -3.020363
2011-11-07 06:46:56 51°18.657 2°53.772 12.6702 3.804492 32.315132 -3.020363
2011-11-07 06:47:01 51°18.666 2°53.791 12.6767 3.805217 32.32199 -3.020363
2011-11-07 06:47:05 51°18.672 2°53.806 12.6821 3.807497 32.34501 -3.020363
2011-11-07 06:47:10 51°18.681 2°53.824 12.6749 3.806979 32.340111 -3.020363
2011-11-07 06:47:16 51°18.692 2°53.846 12.6743 3.806253 32.331787 -3.020363
2011-11-07 06:47:21 51°18.701 2°53.864 12.6719 3.806253 32.331787 -3.020363
2011-11-07 06:47:25 51°18.708 2°53.879 12.6739 3.806253 32.331054 -3.020363
2011-11-07 06:47:31 51°18.719 2°53.901 12.6762 3.807289 32.342317 -3.020363
2011-11-07 06:47:35 51°18.726 2°53.916 12.6758 3.807186 32.341337 -3.020363
2011-11-07 06:47:41 51°18.737 2°53.938 12.6833 3.807082 32.340358 -3.020363
2011-11-07 06:47:45 51°18.744 2°53.953 12.673 3.807911 32.347463 -3.020363
2011-11-07 06:47:51 51°18.754 2°53.976 12.6732 3.807911 32.347463 -3.020363
2011-11-07 06:47:56 51°18.763 2°53.995 12.6736 3.808118 32.350156 -3.020363
2011-11-07 06:48:01 51°18.771 2°54.014 12.6736 3.808325 32.352115 -3.020363
2011-11-07 06:48:05 51°18.778 2°54.029 12.6855 3.808222 32.351136 -3.020363
2011-11-07 06:48:11 51°18.789 2°54.052 12.6841 3.808947 32.357261 -3.020363
2011-11-07 06:48:16 51°18.797 2°54.071 12.688 3.810708 32.373185 -3.020363
2011-11-07 06:48:21 51°18.805 2°54.09 12.6777 3.810708 32.373185 -3.020363
2011-11-07 06:48:25 51°18.812 2°54.105 12.6794 3.809465 32.36216 -3.020363
2011-11-07 06:48:31 51°18.823 2°54.127 12.6843 3.810086 32.369507 -3.020363
2011-11-07 06:48:35 51°18.83 2°54.142 12.6795 3.809983 32.367793 -3.020363
2011-11-07 06:48:41 51°18.841 2°54.165 12.6762 3.81019 32.367552 -3.020363
2011-11-07 06:48:45 51°18.847 2°54.181 12.6865 3.810293 32.367798 -3.020363
2011-11-07 06:48:50 51°18.856 2°54.199 12.6788 3.810293 32.367798 -3.020363
2011-11-07 06:48:55 51°18.865 2°54.218 12.6778 3.812469 32.387642 -3.020363
2011-11-07 06:49:01 51°18.876 2°54.24 12.6813 3.810915 32.373677 -3.020363
2011-11-07 06:49:05 51°18.883 2°54.255 12.6877 3.812262 32.38715 -3.020363
2011-11-07 06:49:10 51°18.892 2°54.273 12.6814 3.810915 32.374411 -3.020363
2011-11-07 06:49:16 51°18.903 2°54.295 12.6765 3.813816 32.401849 -3.020363
2011-11-07 06:49:21 51°18.912 2°54.313 12.6799 3.813816 32.401849 -3.020363
2011-11-07 06:49:25 51°18.919 2°54.328 12.6768 3.812262 32.385682 -3.020363
2011-11-07 06:49:31 51°18.93 2°54.349 12.6842 3.811951 32.382742 -3.020363
2011-11-07 06:49:35 51°18.937 2°54.363 12.6811 3.811744 32.380048 -3.020363
2011-11-07 06:49:41 51°18.948 2°54.385 12.6828 3.811847 32.380294 -3.020363
2011-11-07 06:49:45 51°18.956 2°54.399 12.6835 3.814955 32.410426 -3.020363
2011-11-07 06:49:51 51°18.967 2°54.421 12.679 3.814955 32.410426 -3.020363
2011-11-07 06:49:55 51°18.975 2°54.435 12.6776 3.81278 32.390581 -3.020363
2011-11-07 06:50:01 51°18.986 2°54.456 12.6809 3.815888 32.419981 -3.020363
2011-11-07 06:50:05 51°18.993 2°54.471 12.6854 3.815059 32.412141 -3.020363
2011-11-07 06:50:11 51°19.004 2°54.493 12.6812 3.812883 32.390093 -3.020363
2011-11-07 06:50:16 51°19.014 2°54.51 12.6805 3.813712 32.397932 -3.020363
2011-11-07 06:50:21 51°19.023 2°54.529 12.681 3.813712 32.397932 -3.020363
2011-11-07 06:50:25 51°19.031 2°54.542 12.6854 3.813712 32.398666 -3.020363
2011-11-07 06:50:30 51°19.04 2°54.561 12.6919 3.813816 32.400381 -3.020363
2011-11-07 06:50:36 51°19.051 2°54.583 12.689 3.814334 32.406015 -3.020363
2011-11-07 06:50:41 51°19.06 2°54.601 12.6877 3.814541 32.406506 -3.020363
2011-11-07 06:50:45 51°19.067 2°54.615 12.6865 3.81423 32.402832 -3.020363
2011-11-07 06:50:51 51°19.078 2°54.637 12.6855 3.81423 32.402832 -3.020363
2011-11-07 06:50:55 51°19.085 2°54.652 12.691 3.814644 32.406751 -3.020363
2011-11-07 06:51:01 51°19.096 2°54.674 12.686 3.814748 32.406997 -3.020363
2011-11-07 06:51:05 51°19.102 2°54.688 12.6886 3.814852 32.406508 -3.020363
2011-11-07 06:51:10 51°19.111 2°54.707 12.6919 3.815059 32.406999 -3.020363
2011-11-07 06:51:16 51°19.122 2°54.729 12.6865 3.815784 32.413858 -3.020363
2011-11-07 06:51:21 51°19.13 2°54.746 12.6863 3.815784 32.413858 -3.020363
2011-11-07 06:51:25 51°19.137 2°54.761 12.6943 3.816095 32.416798 -3.020363
2011-11-07 06:51:31 51°19.146 2°54.782 12.692 3.816095 32.416063 -3.020363
2011-11-07 06:51:36 51°19.155 2°54.8 12.6919 3.816405 32.418268 -3.020363
2011-11-07 06:51:41 51°19.163 2°54.818 12.6849 3.816302 32.417288 -3.020363
2011-11-07 06:51:45 51°19.17 2°54.832 12.688 3.817131 32.425127 -3.020363
2011-11-07 06:51:51 51°19.18 2°54.855 12.6852 3.817131 32.425127 -3.020363
2011-11-07 06:51:56 51°19.189 2°54.872 12.6827 3.817649 32.430027 -3.020363
2011-11-07 06:52:01 51°19.197 2°54.89 12.684 3.814126 32.396712 -3.020363
2011-11-07 06:52:05 51°19.204 2°54.904 12.6869 3.814437 32.399651 -3.020363
2011-11-07 06:52:11 51°19.214 2°54.926 12.684 3.814644 32.401611 -3.020363
2011-11-07 06:52:16 51°19.222 2°54.943 12.6878 3.815162 32.40651 -3.020363
2011-11-07 06:52:21 51°19.231 2°54.961 12.688 3.815162 32.40651 -3.020363
2011-11-07 06:52:25 51°19.238 2°54.975 12.6908 3.815162 32.407979 -3.020363
2011-11-07 06:52:30 51°19.246 2°54.993 12.6865 3.817856 32.434192 -3.020363
2011-11-07 06:52:36 51°19.257 2°55.015 12.688 3.819306 32.447912 -3.020363
2011-11-07 06:52:41 51°19.266 2°55.032 12.6868 3.816095 32.417532 -3.020363
2011-11-07 06:52:45 51°19.273 2°55.047 12.6905 3.816302 32.418758 -3.020363
2011-11-07 06:52:50 51°19.282 2°55.065 12.6903 3.816302 32.418758 -3.020363
2011-11-07 06:52:56 51°19.292 2°55.088 12.6839 3.816095 32.416798 -3.020363
2011-11-07 06:53:01 51°19.301 2°55.105 12.6878 3.820342 32.456977 -3.020363
2011-11-07 06:53:05 51°19.308 2°55.12 12.6879 3.817027 32.425617 -3.020363
2011-11-07 06:53:11 51°19.319 2°55.142 12.6896 3.816509 32.420717 -3.020363
2011-11-07 06:53:15 51°19.326 2°55.156 12.6904 3.816613 32.421697 -3.020363
2011-11-07 06:53:21 51°19.337 2°55.178 12.6842 3.816613 32.421697 -3.020363
2011-11-07 06:53:25 51°19.344 2°55.192 12.6878 3.818063 32.435417 -3.020363
2011-11-07 06:53:31 51°19.355 2°55.213 12.6874 3.816923 32.424637 -3.020363
2011-11-07 06:53:36 51°19.364 2°55.231 12.6918 3.817234 32.428312 -3.020363
2011-11-07 06:53:41 51°19.372 2°55.249 12.6878 3.817545 32.431252 -3.020363
2011-11-07 06:53:45 51°19.379 2°55.264 12.6891 3.817234 32.427577 -3.020363
2011-11-07 06:53:50 51°19.387 2°55.283 12.6875 3.817234 32.427577 -3.020363
2011-11-07 06:53:56 51°19.397 2°55.306 12.6874 3.818581 32.440317 -3.020363
2011-11-07 06:54:01 51°19.406 2°55.325 12.686 3.81941 32.448157 -3.020363
2011-11-07 06:54:05 51°19.412 2°55.34 12.6857 3.817545 32.430517 -3.020363
2011-11-07 06:54:11 51°19.422 2°55.364 12.6907 3.817856 32.432722 -3.020363
2011-11-07 06:54:15 51°19.428 2°55.379 12.6889 3.819824 32.451342 -3.020363
2011-11-07 06:54:21 51°19.437 2°55.404 12.6897 3.819824 32.451342 -3.020363
2011-11-07 06:54:25 51°19.442 2°55.42 12.6873 3.821896 32.470943 -3.020363
2011-11-07 06:54:31 51°19.451 2°55.445 12.6899 3.821482 32.466287 -3.020363
2011-11-07 06:54:36 51°19.459 2°55.465 12.6906 3.818063 32.434682 -3.020363
2011-11-07 06:54:41 51°19.466 2°55.486 12.6895 3.817959 32.433702 -3.020363
2011-11-07 06:54:45 51°19.472 2°55.501 12.6903 3.818374 32.437622 -3.020363
2011-11-07 06:54:51 51°19.481 2°55.525 12.6933 3.818374 32.437622 -3.020363
2011-11-07 06:54:56 51°19.489 2°55.544 12.6907 3.818374 32.437622 -3.020363
2011-11-07 06:55:01 51°19.497 2°55.564 12.6939 3.818685 32.441297 -3.020363
2011-11-07 06:55:05 51°19.504 2°55.579 12.6935 3.822621 32.477804 -3.020363
2011-11-07 06:55:10 51°19.512 2°55.599 12.6926 3.819203 32.444726 -3.020363
2011-11-07 06:55:16 51°19.521 2°55.623 12.6905 3.818892 32.441786 -3.020363
2011-11-07 06:55:21 51°19.529 2°55.643 12.6917 3.818892 32.441786 -3.020363
2011-11-07 06:55:25 51°19.536 2°55.659 12.6895 3.819099 32.443746 -3.020363
2011-11-07 06:55:31 51°19.544 2°55.683 12.692 3.819203 32.443256 -3.020363
2011-11-07 06:55:36 51°19.553 2°55.702 12.692 3.819617 32.447911 -3.020363
2011-11-07 06:55:41 51°19.561 2°55.722 12.6929 3.81941 32.445216 -3.020363
2011-11-07 06:55:45 51°19.567 2°55.738 12.6902 3.819617 32.447911 -3.020363
2011-11-07 06:55:51 51°19.577 2°55.762 12.6917 3.819617 32.447911 -3.020363
2011-11-07 06:55:56 51°19.585 2°55.782 12.6911 3.767407 31.953843 -3.020363
2011-11-07 06:56:01 51°19.592 2°55.802 12.6946 3.746484 31.756437 -3.020363
2011-11-07 06:56:05 51°19.598 2°55.819 12.6948 3.75736 31.859026 -3.020363
2011-11-07 06:56:10 51°19.606 2°55.838 12.6917 3.762642 31.909596 -3.020363
2011-11-07 06:56:16 51°19.616 2°55.862 12.6934 3.759949 31.883459 -3.020363
2011-11-07 06:56:21 51°19.624 2°55.882 12.6917 3.759949 31.883459 -3.020363
2011-11-07 06:56:25 51°19.63 2°55.899 12.694 3.758499 31.869776 -3.020363
2011-11-07 06:56:31 51°19.639 2°55.923 12.6956 3.762539 31.908618 -3.020363
2011-11-07 06:56:35 51°19.645 2°55.939 12.6942 3.759328 31.877595 -3.020363
2011-11-07 06:56:41 51°19.655 2°55.962 12.696 3.762746 31.909128 -3.020363
2011-11-07 06:56:45 51°19.661 2°55.979 12.6996 3.762021 31.902285 -3.020363
2011-11-07 06:56:51 51°19.671 2°56.001 12.6946 3.762021 31.902285 -3.020363
2011-11-07 06:56:56 51°19.679 2°56.02 12.6987 3.762539 31.907895 -3.020363
2011-11-07 06:57:01 51°19.687 2°56.039 12.6976 3.762953 31.911083 -3.020363
2011-11-07 06:57:05 51°19.694 2°56.054 12.7031 3.761503 31.897398 -3.020363
2011-11-07 06:57:11 51°19.704 2°56.078 12.6965 3.761399 31.895698 -3.020363
2011-11-07 06:57:16 51°19.712 2°56.096 12.6966 3.761503 31.895231 -3.020363
2011-11-07 06:57:21 51°19.721 2°56.115 12.6952 3.761503 31.895231 -3.020363
2011-11-07 06:57:25 51°19.727 2°56.131 12.6957 3.758706 31.868843 -3.020363
2011-11-07 06:57:31 51°19.737 2°56.154 12.6991 3.763264 31.911124 -3.020363
2011-11-07 06:57:35 51°19.744 2°56.169 12.7028 3.762953 31.907469 -3.020363
2011-11-07 06:57:41 51°19.754 2°56.192 12.6968 3.760674 31.885245 -3.020363
2011-11-07 06:57:45 51°19.76 2°56.208 12.6961 3.763057 31.907723 -3.020363
2011-11-07 06:57:51 51°19.77 2°56.231 12.6957 3.763057 31.907723 -3.020363
2011-11-07 06:57:56 51°19.778 2°56.25 12.6993 3.762332 31.901604 -3.020363
2011-11-07 06:58:01 51°19.787 2°56.27 12.6971 3.763575 31.914056 -3.020363
2011-11-07 06:58:05 51°19.792 2°56.286 12.6987 3.763264 31.910401 -3.020363
2011-11-07 06:58:10 51°19.801 2°56.306 12.6959 3.764714 31.923362 -3.020363
2011-11-07 06:58:16 51°19.81 2°56.329 12.6962 3.765336 31.929226 -3.020363
2011-11-07 06:58:21 51°19.818 2°56.35 12.6999 3.765336 31.929226 -3.020363
2011-11-07 06:58:25 51°19.825 2°56.365 12.6962 3.763782 31.915288 -3.020363
2011-11-07 06:58:31 51°19.834 2°56.389 12.697 3.76461 31.922384 -3.020363
2011-11-07 06:58:35 51°19.839 2°56.405 12.6964 3.765336 31.929226 -3.020363
2011-11-07 06:58:41 51°19.849 2°56.429 12.6952 3.764818 31.924339 -3.020363
2011-11-07 06:58:45 51°19.856 2°56.444 12.6959 3.762953 31.907469 -3.020363
2011-11-07 06:58:50 51°19.863 2°56.464 12.6966 3.762953 31.907469 -3.020363
2011-11-07 06:58:55 51°19.872 2°56.483 12.6996 3.761814 31.896718 -3.020363
2011-11-07 06:59:01 51°19.881 2°56.507 12.6955 3.763575 31.913333 -3.020363
2011-11-07 06:59:05 51°19.887 2°56.523 12.6978 3.765336 31.930673 -3.020363
2011-11-07 06:59:11 51°19.897 2°56.546 12.6949 3.764921 31.926763 -3.020363
2011-11-07 06:59:16 51°19.905 2°56.565 12.6979 3.760985 31.889621 -3.020363
2011-11-07 06:59:21 51°19.913 2°56.585 12.6985 3.760985 31.889621 -3.020363
2011-11-07 06:59:25 51°19.919 2°56.6 12.6996 3.762746 31.905514 -3.020363
2011-11-07 06:59:31 51°19.929 2°56.623 12.699 3.763264 31.910401 -3.020363
2011-11-07 06:59:35 51°19.935 2°56.639 12.6986 3.763264 31.911124 -3.020363
2011-11-07 06:59:41 51°19.946 2°56.662 12.6979 3.763575 31.913333 -3.020363
2011-11-07 06:59:45 51°19.951 2°56.678 12.6987 3.762953 31.908191 -3.020363
2011-11-07 06:59:51 51°19.961 2°56.702 12.6966 3.762953 31.908191 -3.020363
2011-11-07 06:59:56 51°19.969 2°56.721 12.6996 3.760467 31.884735 -3.020363
2011-11-07 07:00:01 51°19.977 2°56.741 12.6996 3.763471 31.912356 -3.020363
2011-11-07 07:00:05 51°19.983 2°56.757 12.6993 3.76285 31.905769 -3.020363
2011-11-07 07:00:10 51°19.991 2°56.777 12.6953 3.764818 31.924339 -3.020363
2011-11-07 07:00:16 51°20 2°56.801 12.7002 3.765232 31.928249 -3.020363
2011-11-07 07:00:21 51°20.008 2°56.821 12.6994 3.765232 31.928249 -3.020363
2011-11-07 07:00:25 51°20.015 2°56.836 12.696 3.763367 31.910655 -3.020363
2011-11-07 07:00:30 51°20.023 2°56.856 12.6999 3.762953 31.906746 -3.020363
2011-11-07 07:00:36 51°20.034 2°56.88 12.7015 3.762746 31.904791 -3.020363
2011-11-07 07:00:41 51°20.042 2°56.9 12.6979 3.762539 31.903559 -3.020363
2011-11-07 07:00:45 51°20.049 2°56.915 12.6998 3.7672 31.947545 -3.020363
2011-11-07 07:00:51 51°20.059 2°56.939 12.7014 3.7672 31.947545 -3.020363
2011-11-07 07:00:55 51°20.065 2°56.955 12.7015 3.762539 31.903559 -3.020363
2011-11-07 07:01:01 51°20.075 2°56.98 12.6974 3.764196 31.919197 -3.020363
2011-11-07 07:01:05 51°20.081 2°56.996 12.6987 3.761399 31.892808 -3.020363
2011-11-07 07:01:11 51°20.091 2°57.02 12.7036 3.763057 31.907723 -3.020363
2011-11-07 07:01:16 51°20.099 2°57.04 12.7031 3.763885 31.916265 -3.020363
2011-11-07 07:01:21 51°20.108 2°57.06 12.7015 3.763885 31.916265 -3.020363
2011-11-07 07:01:25 51°20.115 2°57.076 12.701 3.762228 31.900627 -3.020363
2011-11-07 07:01:30 51°20.124 2°57.096 12.6991 3.765232 31.928249 -3.020363
2011-11-07 07:01:36 51°20.133 2°57.121 12.7006 3.763678 31.913588 -3.020363
2011-11-07 07:01:41 51°20.142 2°57.141 12.7061 3.76316 31.908701 -3.020363
2011-11-07 07:01:45 51°20.148 2°57.158 12.7001 3.76285 31.905046 -3.020363
2011-11-07 07:01:51 51°20.157 2°57.182 12.6992 3.76285 31.905046 -3.020363
2011-11-07 07:01:56 51°20.166 2°57.202 12.7013 3.76316 31.907255 -3.020363
2011-11-07 07:02:01 51°20.173 2°57.223 12.7003 3.762539 31.901391 -3.020363
2011-11-07 07:02:05 51°20.18 2°57.239 12.7028 3.76316 31.907255 -3.020363
2011-11-07 07:02:10 51°20.188 2°57.258 12.7034 3.762332 31.898714 -3.020363
2011-11-07 07:02:16 51°20.198 2°57.282 12.7049 3.766371 31.936831 -3.020363
2011-11-07 07:02:21 51°20.206 2°57.302 12.7027 3.766371 31.936831 -3.020363
2011-11-07 07:02:25 51°20.214 2°57.317 12.7031 3.765128 31.925825 -3.020363
2011-11-07 07:02:30 51°20.221 2°57.337 12.7041 3.763057 31.906278 -3.020363
2011-11-07 07:02:36 51°20.231 2°57.361 12.7028 3.764196 31.917752 -3.020363
2011-11-07 07:02:41 51°20.239 2°57.379 12.7012 3.76171 31.892851 -3.020363
2011-11-07 07:02:45 51°20.246 2°57.395 12.7018 3.763575 31.910442 -3.020363
2011-11-07 07:02:49 51°20.252 2°57.411 12.7043 3.763575 31.910442 -3.020363
2011-11-07 07:02:55 51°20.262 2°57.434 12.6999 3.760985 31.885288 -3.020363
2011-11-07 07:03:01 51°20.272 2°57.457 12.7002 3.76461 31.919492 -3.020363
2011-11-07 07:03:05 51°20.278 2°57.473 12.7026 3.764818 31.921447 -3.020363
2011-11-07 07:03:11 51°20.288 2°57.496 12.704 3.764403 31.917538 -3.020363
2011-11-07 07:03:15 51°20.294 2°57.512 12.7035 3.763885 31.913374 -3.020363
2011-11-07 07:03:21 51°20.304 2°57.536 12.7022 3.763885 31.913374 -3.020363
2011-11-07 07:03:25 51°20.31 2°57.551 12.7016 3.761296 31.889664 -3.020363
2011-11-07 07:03:31 51°20.319 2°57.575 12.7041 3.762435 31.900414 -3.020363
2011-11-07 07:03:36 51°20.327 2°57.596 12.7047 3.760364 31.881591 -3.020363
2011-11-07 07:03:41 51°20.335 2°57.616 12.704 3.762642 31.903091 -3.020363
2011-11-07 07:03:45 51°20.341 2°57.632 12.7042 3.761192 31.887965 -3.020363
2011-11-07 07:03:50 51°20.349 2°57.651 12.7032 3.761192 31.887965 -3.020363
2011-11-07 07:03:56 51°20.359 2°57.675 12.7029 3.763885 31.913374 -3.020363
2011-11-07 07:04:01 51°20.366 2°57.695 12.7054 3.760674 31.883801 -3.020363
2011-11-07 07:04:05 51°20.373 2°57.711 12.7072 3.761399 31.889919 -3.020363
2011-11-07 07:04:11 51°20.383 2°57.735 12.705 3.762849 31.902156 -3.020363
2011-11-07 07:04:16 51°20.391 2°57.755 12.701 3.760778 31.882612 -3.020363
2011-11-07 07:04:21 51°20.399 2°57.774 12.7018 3.760778 31.882612 -3.020363
2011-11-07 07:04:25 51°20.405 2°57.791 12.7039 3.761399 31.889197 -3.020363
2011-11-07 07:04:30 51°20.413 2°57.811 12.7038 3.759535 31.871608 -3.020363
2011-11-07 07:04:36 51°20.423 2°57.834 12.7027 3.759949 31.875517 -3.020363
2011-11-07 07:04:41 51°20.43 2°57.854 12.7023 3.762435 31.898247 -3.020363
2011-11-07 07:04:45 51°20.437 2°57.87 12.6992 3.760881 31.883589 -3.020363
2011-11-07 07:04:50 51°20.445 2°57.889 12.6989 3.760881 31.883589 -3.020363
2011-11-07 07:04:56 51°20.454 2°57.914 12.7023 3.761399 31.889197 -3.020363
2011-11-07 07:05:01 51°20.463 2°57.933 12.7024 3.763057 31.904833 -3.020363
2011-11-07 07:05:05 51°20.469 2°57.949 12.6996 3.759742 31.873562 -3.020363
2011-11-07 07:05:11 51°20.479 2°57.972 12.7041 3.763885 31.913374 -3.020363
2011-11-07 07:05:15 51°20.484 2°57.989 12.6978 3.762435 31.899692 -3.020363
2011-11-07 07:05:21 51°20.494 2°58.012 12.7014 3.762435 31.899692 -3.020363
2011-11-07 07:05:25 51°20.5 2°58.028 12.696 3.760881 31.885755 -3.020363
2011-11-07 07:05:31 51°20.509 2°58.052 12.6955 3.760985 31.886733 -3.020363
2011-11-07 07:05:36 51°20.517 2°58.072 12.6977 3.761917 31.895528 -3.020363
2011-11-07 07:05:41 51°20.526 2°58.092 12.6966 3.760053 31.877938 -3.020363
2011-11-07 07:05:45 51°20.533 2°58.107 12.6983 3.757152 31.850578 -3.020363
2011-11-07 07:05:51 51°20.542 2°58.131 12.6967 3.757152 31.850578 -3.020363
2011-11-07 07:05:56 51°20.551 2°58.151 12.6928 3.759121 31.869865 -3.020363
2011-11-07 07:06:01 51°20.559 2°58.17 12.6942 3.759328 31.873263 -3.020363
2011-11-07 07:06:05 51°20.565 2°58.187 12.6959 3.757567 31.858094 -3.020363
2011-11-07 07:06:10 51°20.573 2°58.207 12.6919 3.75736 31.85614 -3.020363
2011-11-07 07:06:16 51°20.583 2°58.231 12.6933 3.754874 31.832689 -3.020363
2011-11-07 07:06:21 51°20.591 2°58.251 12.6968 3.754874 31.832689 -3.020363
2011-11-07 07:06:25 51°20.598 2°58.266 12.6928 3.755599 31.839528 -3.020363
2011-11-07 07:06:30 51°20.606 2°58.286 12.6927 3.757256 31.855884 -3.020363
2011-11-07 07:06:36 51°20.616 2°58.31 12.6936 3.756324 31.847811 -3.020363
2011-11-07 07:06:41 51°20.624 2°58.33 12.6946 3.756738 31.85172 -3.020363
2011-11-07 07:06:45 51°20.631 2°58.345 12.6931 3.75622 31.848276 -3.020363
2011-11-07 07:06:50 51°20.639 2°58.366 12.6925 3.75622 31.848276 -3.020363
2011-11-07 07:06:55 51°20.647 2°58.385 12.6932 3.754874 31.834852 -3.020363
2011-11-07 07:07:01 51°20.657 2°58.41 12.6903 3.755288 31.83876 -3.020363
2011-11-07 07:07:05 51°20.664 2°58.425 12.693 3.755392 31.840459 -3.020363
2011-11-07 07:07:11 51°20.674 2°58.448 12.6902 3.75622 31.848276 -3.020363
2011-11-07 07:07:15 51°20.681 2°58.464 12.6898 3.757567 31.861703 -3.020363
2011-11-07 07:07:21 51°20.691 2°58.488 12.6903 3.757567 31.861703 -3.020363
2011-11-07 07:07:25 51°20.697 2°58.504 12.6896 3.753009 31.819426 -3.020363
2011-11-07 07:07:30 51°20.705 2°58.524 12.6884 3.752906 31.817008 -3.020363
2011-11-07 07:07:35 51°20.713 2°58.544 12.6893 3.758085 31.867311 -3.020363
2011-11-07 07:07:41 51°20.722 2°58.568 12.6898 3.752802 31.817472 -3.020363
2011-11-07 07:07:45 51°20.729 2°58.584 12.6866 3.753424 31.824056 -3.020363
2011-11-07 07:07:51 51°20.739 2°58.607 12.6887 3.753424 31.824056 -3.020363
2011-11-07 07:07:56 51°20.747 2°58.627 12.6886 3.753216 31.822101 -3.020363
2011-11-07 07:08:01 51°20.755 2°58.647 12.6875 3.750627 31.798394 -3.020363
2011-11-07 07:08:05 51°20.762 2°58.663 12.6842 3.752388 31.815005 -3.020363
2011-11-07 07:08:11 51°20.771 2°58.687 12.6846 3.752077 31.812794 -3.020363
2011-11-07 07:08:15 51°20.777 2°58.703 12.6836 3.753009 31.823031 -3.020363
2011-11-07 07:08:21 51°20.786 2°58.727 12.6856 3.753009 31.823031 -3.020363
2011-11-07 07:08:25 51°20.793 2°58.743 12.6856 3.751663 31.810327 -3.020363
2011-11-07 07:08:30 51°20.801 2°58.763 12.6812 3.752077 31.814957 -3.020363
2011-11-07 07:08:36 51°20.81 2°58.787 12.6808 3.750731 31.801533 -3.020363
2011-11-07 07:08:41 51°20.817 2°58.807 12.6816 3.750731 31.802253 -3.020363
2011-11-07 07:08:45 51°20.824 2°58.823 12.6787 3.749798 31.7949 -3.020363
2011-11-07 07:08:50 51°20.832 2°58.843 12.68 3.749798 31.7949 -3.020363
2011-11-07 07:08:56 51°20.841 2°58.868 12.6816 3.748452 31.782917 -3.020363
2011-11-07 07:09:01 51°20.849 2°58.888 12.6795 3.750731 31.805136 -3.020363
2011-11-07 07:09:05 51°20.855 2°58.904 12.6809 3.748866 31.788266 -3.020363
2011-11-07 07:09:10 51°20.864 2°58.923 12.6811 3.748141 31.782146 -3.020363
2011-11-07 07:09:15 51°20.872 2°58.944 12.6799 3.752284 31.821958 -3.020363
2011-11-07 07:09:21 51°20.881 2°58.967 12.6829 3.752284 31.821958 -3.020363
2011-11-07 07:09:25 51°20.887 2°58.985 12.6816 3.748555 31.787495 -3.020363
2011-11-07 07:09:31 51°20.897 2°59.007 12.6783 3.746587 31.769648 -3.020363
2011-11-07 07:09:35 51°20.902 2°59.024 12.6816 3.746691 31.769186 -3.020363
2011-11-07 07:09:41 51°20.913 2°59.047 12.6797 3.746587 31.768928 -3.020363
2011-11-07 07:09:45 51°20.919 2°59.063 12.6851 3.744205 31.746455 -3.020363
2011-11-07 07:09:51 51°20.93 2°59.087 12.6832 3.744205 31.746455 -3.020363
2011-11-07 07:09:56 51°20.937 2°59.108 12.6813 3.744723 31.750621 -3.020363
2011-11-07 07:10:01 51°20.946 2°59.127 12.6798 3.746898 31.77114 -3.020363
2011-11-07 07:10:05 51°20.952 2°59.144 12.6788 3.743894 31.742804 -3.020363
2011-11-07 07:10:11 51°20.963 2°59.167 12.6813 3.744827 31.752317 -3.020363
2011-11-07 07:10:16 51°20.97 2°59.187 12.6787 3.744516 31.748666 -3.020363
2011-11-07 07:10:21 51°20.979 2°59.207 12.6774 3.744516 31.748666 -3.020363
2011-11-07 07:10:25 51°20.985 2°59.223 12.6807 3.744101 31.744758 -3.020363
2011-11-07 07:10:30 51°20.993 2°59.244 12.678 3.748763 31.788729 -3.020363
2011-11-07 07:10:36 51°21.003 2°59.268 12.6764 3.745034 31.753552 -3.020363
2011-11-07 07:10:41 51°21.011 2°59.288 12.6817 3.745862 31.762088 -3.020363
2011-11-07 07:10:45 51°21.018 2°59.304 12.6821 3.744205 31.746455 -3.020363
2011-11-07 07:10:50 51°21.026 2°59.324 12.6789 3.744205 31.746455 -3.020363
2011-11-07 07:10:56 51°21.036 2°59.348 12.6828 3.743791 31.743266 -3.020363
2011-11-07 07:11:01 51°21.043 2°59.369 12.6792 3.741823 31.724702 -3.020363
2011-11-07 07:11:05 51°21.05 2°59.384 12.6777 3.745759 31.761831 -3.020363
2011-11-07 07:11:10 51°21.057 2°59.405 12.6836 3.744412 31.749848 -3.020363
2011-11-07 07:11:15 51°21.065 2°59.425 12.6774 3.744827 31.753037 -3.020363
2011-11-07 07:11:21 51°21.075 2°59.449 12.6778 3.744827 31.753037 -3.020363
2011-11-07 07:11:25 51°21.081 2°59.465 12.6789 3.745759 31.761831 -3.020363
2011-11-07 07:11:31 51°21.091 2°59.489 12.678 3.742237 31.72861 -3.020363
2011-11-07 07:11:35 51°21.098 2°59.505 12.6803 3.744827 31.752317 -3.020363
2011-11-07 07:11:41 51°21.107 2°59.529 12.6819 3.742651 31.732518 -3.020363
2011-11-07 07:11:45 51°21.114 2°59.544 12.68 3.743066 31.736427 -3.020363
2011-11-07 07:11:50 51°21.121 2°59.565 12.6778 3.743066 31.736427 -3.020363
2011-11-07 07:11:55 51°21.13 2°59.585 12.6778 3.743687 31.742289 -3.020363
2011-11-07 07:12:01 51°21.14 2°59.607 12.6798 3.743791 31.743985 -3.020363
2011-11-07 07:12:05 51°21.147 2°59.624 12.6797 3.743894 31.744243 -3.020363
2011-11-07 07:12:11 51°21.157 2°59.647 12.679 3.742859 31.734472 -3.020363
2011-11-07 07:12:16 51°21.165 2°59.667 12.6773 3.745137 31.755968 -3.020363
2011-11-07 07:12:21 51°21.174 2°59.687 12.6788 3.745137 31.755968 -3.020363
2011-11-07 07:12:25 51°21.181 2°59.702 12.683 3.745034 31.755711 -3.020363
2011-11-07 07:12:31 51°21.191 2°59.727 12.6854 3.742237 31.729329 -3.020363
2011-11-07 07:12:35 51°21.197 2°59.743 12.6822 3.742755 31.733495 -3.020363
2011-11-07 07:12:41 51°21.207 2°59.767 12.6821 3.742651 31.733238 -3.020363
2011-11-07 07:12:45 51°21.214 2°59.782 12.6846 3.741719 31.724444 -3.020363
2011-11-07 07:12:51 51°21.223 2°59.808 12.6821 3.741719 31.724444 -3.020363
2011-11-07 07:12:56 51°21.231 2°59.827 12.6808 3.744619 31.751083 -3.020363
2011-11-07 07:13:01 51°21.24 2°59.847 12.6819 3.741098 31.717145 -3.020363
2011-11-07 07:13:05 51°21.246 2°59.863 12.6841 3.742444 31.729126 -3.020363
2011-11-07 07:13:10 51°21.255 2°59.883 12.6834 3.741201 31.717403 -3.020363
2011-11-07 07:13:16 51°21.264 2°59.907 12.69 3.742962 31.732573 -3.020363
2011-11-07 07:13:21 51°21.272 2°59.927 12.6884 3.742962 31.732573 -3.020363
2011-11-07 07:13:25 51°21.278 2°59.945 12.6877 3.739958 31.704244 -3.020363
2011-11-07 07:13:30 51°21.287 2°59.964 12.6858 3.743169 31.735246 -3.020363
2011-11-07 07:13:35 51°21.295 2°59.985 12.6866 3.744516 31.747228 -3.020363
2011-11-07 07:13:41 51°21.305 3°0.01 12.6857 3.743584 31.738435 -3.020363
2011-11-07 07:13:45 51°21.312 3°0.026 12.6861 3.741408 31.717201 -3.020363
2011-11-07 07:13:51 51°21.321 3°0.05 12.6889 3.741408 31.717201 -3.020363
2011-11-07 07:13:55 51°21.328 3°0.066 12.6902 3.740787 31.710621 -3.020363
2011-11-07 07:14:01 51°21.337 3°0.091 12.6876 3.742341 31.724555 -3.020363
2011-11-07 07:14:05 51°21.344 3°0.107 12.6862 3.741408 31.715764 -3.020363
2011-11-07 07:14:11 51°21.355 3°0.131 12.6862 3.742341 31.724555 -3.020363
2011-11-07 07:14:16 51°21.363 3°0.152 12.6869 3.746069 31.760444 -3.020363
2011-11-07 07:14:21 51°21.371 3°0.172 12.6881 3.746069 31.760444 -3.020363
2011-11-07 07:14:25 51°21.378 3°0.189 12.6887 3.745137 31.750212 -3.020363
2011-11-07 07:14:31 51°21.388 3°0.213 12.6875 3.743066 31.729955 -3.020363
2011-11-07 07:14:36 51°21.396 3°0.233 12.6887 3.744412 31.741935 -3.020363
2011-11-07 07:14:41 51°21.404 3°0.254 12.6935 3.741719 31.716538 -3.020363
2011-11-07 07:14:45 51°21.41 3°0.271 12.6862 3.742755 31.727025 -3.020363
2011-11-07 07:14:51 51°21.42 3°0.295 12.6886 3.742755 31.727025 -3.020363
2011-11-07 07:14:56 51°21.428 3°0.315 12.6897 3.744101 31.739005 -3.020363
2011-11-07 07:15:01 51°21.437 3°0.334 12.6867 3.743791 31.736074 -3.020363
2011-11-07 07:15:05 51°21.444 3°0.35 12.6852 3.742237 31.721422 -3.020363
2011-11-07 07:15:10 51°21.452 3°0.37 12.6866 3.743998 31.737309 -3.020363
2011-11-07 07:15:16 51°21.462 3°0.394 12.6849 3.745344 31.749289 -3.020363
2011-11-07 07:15:21 51°21.471 3°0.414 12.6858 3.745344 31.749289 -3.020363
2011-11-07 07:15:25 51°21.478 3°0.43 12.6844 3.742651 31.723892 -3.020363
2011-11-07 07:15:30 51°21.486 3°0.45 12.6836 3.74203 31.71875 -3.020363
2011-11-07 07:15:35 51°21.494 3°0.47 12.685 3.740683 31.707489 -3.020363
2011-11-07 07:15:41 51°21.504 3°0.495 12.6807 3.741408 31.715045 -3.020363
2011-11-07 07:15:45 51°21.51 3°0.511 12.6837 3.742341 31.724555 -3.020363
2011-11-07 07:15:49 51°21.517 3°0.528 12.6815 3.742341 31.724555 -3.020363
2011-11-07 07:15:55 51°21.526 3°0.552 12.6845 3.742548 31.726509 -3.020363
2011-11-07 07:16:01 51°21.535 3°0.577 12.6837 3.743376 31.735043 -3.020363
2011-11-07 07:16:05 51°21.541 3°0.594 12.6845 3.743169 31.733089 -3.020363
2011-11-07 07:16:11 51°21.551 3°0.618 12.6859 3.742962 31.731135 -3.020363
2011-11-07 07:16:15 51°21.557 3°0.635 12.6854 3.74089 31.712317 -3.020363
2011-11-07 07:16:21 51°21.566 3°0.66 12.6829 3.74089 31.712317 -3.020363
2011-11-07 07:16:25 51°21.572 3°0.677 12.6849 3.740787 31.712058 -3.020363
2011-11-07 07:16:31 51°21.581 3°0.702 12.6863 3.73913 31.696429 -3.020363
2011-11-07 07:16:36 51°21.589 3°0.723 12.6881 3.742133 31.724758 -3.020363
2011-11-07 07:16:41 51°21.598 3°0.743 12.6869 3.741305 31.716943 -3.020363
2011-11-07 07:16:45 51°21.604 3°0.76 12.685 3.741615 31.719154 -3.020363
2011-11-07 07:16:51 51°21.614 3°0.784 12.6855 3.741615 31.719154 -3.020363
2011-11-07 07:16:56 51°21.623 3°0.804 12.6894 3.740476 31.709128 -3.020363
2011-11-07 07:17:01 51°21.631 3°0.824 12.6893 3.738819 31.693499 -3.020363
2011-11-07 07:17:05 51°21.637 3°0.841 12.6875 3.741823 31.721108 -3.020363
2011-11-07 07:17:10 51°21.646 3°0.861 12.6899 3.740165 31.705479 -3.020363
2011-11-07 07:17:16 51°21.656 3°0.885 12.6918 3.742548 31.727228 -3.020363
2011-11-07 07:17:21 51°21.665 3°0.904 12.6896 3.742548 31.727228 -3.020363
2011-11-07 07:17:25 51°21.671 3°0.921 12.6893 3.74203 31.723062 -3.020363
2011-11-07 07:17:30 51°21.68 3°0.941 12.6938 3.743066 31.732112 -3.020363
2011-11-07 07:17:36 51°21.689 3°0.965 12.6938 3.741305 31.714787 -3.020363
2011-11-07 07:17:41 51°21.698 3°0.985 12.6966 3.742858 31.72872 -3.020363
2011-11-07 07:17:45 51°21.705 3°1.001 12.6986 3.738301 31.685026 -3.020363
2011-11-07 07:17:50 51°21.713 3°1.021 12.6995 3.738301 31.685026 -3.020363
2011-11-07 07:17:55 51°21.721 3°1.041 12.7009 3.744309 31.740958 -3.020363
2011-11-07 07:18:01 51°21.731 3°1.065 12.7006 3.743273 31.730471 -3.020363
2011-11-07 07:18:05 51°21.738 3°1.08 12.7013 3.742133 31.719727 -3.020363
2011-11-07 07:18:11 51°21.748 3°1.104 12.7051 3.745344 31.748569 -3.020363
2011-11-07 07:18:15 51°21.755 3°1.119 12.709 3.742858 31.724408 -3.020363
2011-11-07 07:18:21 51°21.765 3°1.143 12.7082 3.742858 31.724408 -3.020363
2011-11-07 07:18:25 51°21.772 3°1.158 12.7095 3.745241 31.745435 -3.020363
2011-11-07 07:18:31 51°21.781 3°1.182 12.711 3.745448 31.74595 -3.020363
2011-11-07 07:18:36 51°21.79 3°1.201 12.714 3.745137 31.740863 -3.020363
2011-11-07 07:18:41 51°21.798 3°1.221 12.7144 3.744516 31.734285 -3.020363
2011-11-07 07:18:45 51°21.806 3°1.237 12.7193 3.747312 31.758497 -3.020363
2011-11-07 07:18:51 51°21.815 3°1.261 12.7187 3.747312 31.758497 -3.020363
2011-11-07 07:18:56 51°21.823 3°1.281 12.7217 3.749177 31.773919 -3.020363
2011-11-07 07:19:01 51°21.831 3°1.301 12.7252 3.750834 31.788106 -3.020363
2011-11-07 07:19:05 51°21.838 3°1.317 12.7265 3.751559 31.794223 -3.020363
2011-11-07 07:19:11 51°21.847 3°1.341 12.7282 3.752388 31.799877 -3.020363
2011-11-07 07:19:16 51°21.855 3°1.362 12.7274 3.753941 31.812367 -3.020363
2011-11-07 07:19:21 51°21.863 3°1.383 12.7293 3.753941 31.812367 -3.020363
2011-11-07 07:19:25 51°21.869 3°1.399 12.7317 3.755806 31.827786 -3.020363
2011-11-07 07:19:30 51°21.876 3°1.42 12.7333 3.756427 31.832205 -3.020363
2011-11-07 07:19:36 51°21.886 3°1.444 12.7352 3.756531 31.831019 -3.020363
2011-11-07 07:19:41 51°21.894 3°1.465 12.7337 3.757359 31.83667 -3.020363
2011-11-07 07:19:45 51°21.901 3°1.48 12.7339 3.761296 31.872341 -3.020363
2011-11-07 07:19:50 51°21.909 3°1.501 12.736 3.761296 31.872341 -3.020363
2011-11-07 07:19:56 51°21.919 3°1.525 12.738 3.762642 31.883595 -3.020363
2011-11-07 07:20:01 51°21.926 3°1.545 12.7368 3.762124 31.877269 -3.020363
2011-11-07 07:20:05 51°21.934 3°1.561 12.7371 3.761813 31.872896 -3.020363
2011-11-07 07:20:10 51°21.942 3°1.581 12.7396 3.763471 31.887079 -3.020363
2011-11-07 07:20:15 51°21.951 3°1.601 12.7413 3.762746 31.879521 -3.020363
2011-11-07 07:20:21 51°21.961 3°1.624 12.7408 3.762746 31.879521 -3.020363
2011-11-07 07:20:25 51°21.967 3°1.641 12.7406 3.767096 31.919818 -3.020363
2011-11-07 07:20:31 51°21.977 3°1.665 12.7419 3.769375 31.939139 -3.020363
2011-11-07 07:20:35 51°21.984 3°1.68 12.7458 3.76606 31.907885 -3.020363
2011-11-07 07:20:41 51°21.994 3°1.704 12.7435 3.765853 31.90521 -3.020363
2011-11-07 07:20:45 51°22 3°1.72 12.7444 3.76865 31.930857 -3.020363
2011-11-07 07:20:50 51°22.009 3°1.739 12.7451 3.76865 31.930857 -3.020363
2011-11-07 07:20:55 51°22.017 3°1.759 12.7473 3.765646 31.901092 -3.020363
2011-11-07 07:21:01 51°22.028 3°1.783 12.7455 3.76865 31.92869 -3.020363
2011-11-07 07:21:05 51°22.034 3°1.799 12.7455 3.767614 31.918924 -3.020363
2011-11-07 07:21:11 51°22.045 3°1.822 12.7436 3.767096 31.912597 -3.020363
2011-11-07 07:21:16 51°22.053 3°1.842 12.7444 3.767821 31.919433 -3.020363
2011-11-07 07:21:21 51°22.062 3°1.862 12.745 3.767821 31.919433 -3.020363
2011-11-07 07:21:25 51°22.068 3°1.878 12.7466 3.769996 31.939218 -3.020363
2011-11-07 07:21:31 51°22.079 3°1.902 12.7463 3.770307 31.941426 -3.020363
2011-11-07 07:21:36 51°22.087 3°1.92 12.7453 3.766578 31.906271 -3.020363
2011-11-07 07:21:41 51°22.095 3°1.941 12.7476 3.770514 31.942656 -3.020363
2011-11-07 07:21:45 51°22.102 3°1.956 12.7479 3.769168 31.929961 -3.020363
2011-11-07 07:21:50 51°22.11 3°1.977 12.746 3.769168 31.929961 -3.020363
2011-11-07 07:21:56 51°22.12 3°2 12.7478 3.769064 31.928262 -3.020363
2011-11-07 07:22:01 51°22.127 3°2.021 12.7473 3.76865 31.924356 -3.020363
2011-11-07 07:22:05 51°22.134 3°2.036 12.7484 3.768339 31.920705 -3.020363
2011-11-07 07:22:10 51°22.142 3°2.056 12.7488 3.769064 31.926818 -3.020363
2011-11-07 07:22:16 51°22.152 3°2.08 12.748 3.766992 31.906568 -3.020363
2011-11-07 07:22:21 51°22.16 3°2.1 12.7468 3.766992 31.906568 -3.020363
2011-11-07 07:22:25 51°22.167 3°2.115 12.748 3.769375 31.929747 -3.020363
2011-11-07 07:22:30 51°22.174 3°2.135 12.7486 3.769582 31.9317 -3.020363
2011-11-07 07:22:35 51°22.182 3°2.156 12.7473 3.768235 31.918284 -3.020363
2011-11-07 07:22:41 51°22.191 3°2.18 12.7466 3.767303 31.908775 -3.020363
2011-11-07 07:22:45 51°22.197 3°2.196 12.7457 3.768132 31.916586 -3.020363
2011-11-07 07:22:51 51°22.207 3°2.219 12.746 3.768132 31.916586 -3.020363
2011-11-07 07:22:55 51°22.213 3°2.236 12.7444 3.767821 31.914379 -3.020363
2011-11-07 07:23:01 51°22.223 3°2.26 12.7451 3.766992 31.906568 -3.020363
2011-11-07 07:23:05 51°22.229 3°2.276 12.7452 3.766474 31.901686 -3.020363
2011-11-07 07:23:10 51°22.237 3°2.295 12.7415 3.764817 31.886066 -3.020363
2011-11-07 07:23:15 51°22.245 3°2.315 12.7454 3.764714 31.885811 -3.020363
2011-11-07 07:23:21 51°22.255 3°2.339 12.7447 3.764714 31.885811 -3.020363
2011-11-07 07:23:25 51°22.261 3°2.356 12.7424 3.767821 31.915101 -3.020363
2011-11-07 07:23:31 51°22.27 3°2.379 12.745 3.76461 31.885556 -3.020363
2011-11-07 07:23:36 51°22.278 3°2.398 12.7443 3.764921 31.888485 -3.020363
2011-11-07 07:23:41 51°22.286 3°2.419 12.7443 3.763367 31.874562 -3.020363
2011-11-07 07:23:45 51°22.293 3°2.435 12.7415 3.763678 31.87749 -3.020363
2011-11-07 07:23:51 51°22.303 3°2.458 12.7393 3.763678 31.87749 -3.020363
2011-11-07 07:23:55 51°22.309 3°2.475 12.7367 3.764299 31.882627 -3.020363
2011-11-07 07:24:01 51°22.319 3°2.499 12.737 3.764817 31.88823 -3.020363
2011-11-07 07:24:05 51°22.325 3°2.516 12.7403 3.76316 31.872609 -3.020363
2011-11-07 07:24:10 51°22.333 3°2.536 12.7351 3.763263 31.874306 -3.020363
2011-11-07 07:24:16 51°22.343 3°2.559 12.7361 3.762228 31.864544 -3.020363
2011-11-07 07:24:21 51°22.35 3°2.58 12.7365 3.762228 31.864544 -3.020363
2011-11-07 07:24:25 51°22.358 3°2.596 12.7373 3.76171 31.860384 -3.020363
2011-11-07 07:24:30 51°22.365 3°2.616 12.7347 3.759431 31.841069 -3.020363
2011-11-07 07:24:36 51°22.375 3°2.639 12.7375 3.760777 31.85448 -3.020363
2011-11-07 07:24:41 51°22.384 3°2.66 12.7349 3.759224 31.840557 -3.020363
2011-11-07 07:24:45 51°22.39 3°2.676 12.7305 3.757877 31.828586 -3.020363
2011-11-07 07:24:50 51°22.399 3°2.696 12.7299 3.757877 31.828586 -3.020363
2011-11-07 07:24:55 51°22.407 3°2.715 12.7323 3.733329 31.597354 -3.020363
2011-11-07 07:25:01 51°22.417 3°2.739 12.732 3.731153 31.577591 -3.020363
2011-11-07 07:25:05 51°22.424 3°2.755 12.7303 3.7354 31.618288 -3.020363
2011-11-07 07:25:11 51°22.433 3°2.778 12.7323 3.740372 31.665822 -3.020363
2011-11-07 07:25:15 51°22.439 3°2.794 12.7321 3.731982 31.587536 -3.020363
2011-11-07 07:25:21 51°22.449 3°2.817 12.7271 3.731982 31.587536 -3.020363
2011-11-07 07:25:25 51°22.456 3°2.833 12.7282 3.733225 31.599238 -3.020363
2011-11-07 07:25:31 51°22.466 3°2.856 12.7278 3.728668 31.557047 -3.020363
2011-11-07 07:25:36 51°22.475 3°2.875 12.7299 3.727943 31.550935 -3.020363
2011-11-07 07:25:41 51°22.483 3°2.895 12.7299 3.728461 31.556524 -3.020363
2011-11-07 07:25:45 51°22.49 3°2.911 12.7306 3.727425 31.546774 -3.020363
2011-11-07 07:25:51 51°22.499 3°2.935 12.7266 3.727425 31.546774 -3.020363
2011-11-07 07:25:56 51°22.507 3°2.955 12.7291 3.72815 31.552885 -3.020363
2011-11-07 07:26:01 51°22.515 3°2.976 12.7269 3.725664 31.530912 -3.020363
2011-11-07 07:26:05 51°22.521 3°2.992 12.7255 3.725146 31.526751 -3.020363
2011-11-07 07:26:11 51°22.531 3°3.017 12.7245 3.725871 31.533576 -3.020363
2011-11-07 07:26:16 51°22.538 3°3.037 12.7252 3.724525 31.520901 -3.020363
2011-11-07 07:26:21 51°22.546 3°3.057 12.7257 3.724525 31.520901 -3.020363
2011-11-07 07:26:25 51°22.552 3°3.074 12.7251 3.724628 31.522589 -3.020363
2011-11-07 07:26:30 51°22.56 3°3.095 12.7294 3.723592 31.513553 -3.020363
2011-11-07 07:26:36 51°22.57 3°3.119 12.727 3.728046 31.55548 -3.020363
2011-11-07 07:26:41 51°22.578 3°3.14 12.7259 3.725975 31.536691 -3.020363
2011-11-07 07:26:45 51°22.584 3°3.156 12.729 3.725353 31.532268 -3.020363
2011-11-07 07:26:50 51°22.592 3°3.177 12.7269 3.725353 31.532268 -3.020363
2011-11-07 07:26:55 51°22.6 3°3.197 12.7273 3.725664 31.535193 -3.020363
2011-11-07 07:27:01 51°22.609 3°3.222 12.7291 3.72556 31.534218 -3.020363
2011-11-07 07:27:05 51°22.616 3°3.238 12.7262 3.72121 31.492555 -3.020363
2011-11-07 07:27:11 51°22.625 3°3.262 12.7283 3.725664 31.533766 -3.020363
2011-11-07 07:27:15 51°22.631 3°3.278 12.7297 3.726285 31.539617 -3.020363
2011-11-07 07:27:21 51°22.641 3°3.303 12.7262 3.726285 31.539617 -3.020363
2011-11-07 07:27:25 51°22.648 3°3.318 12.7291 3.724939 31.526941 -3.020363
2011-11-07 07:27:30 51°22.656 3°3.339 12.7299 3.721832 31.497692 -3.020363
2011-11-07 07:27:35 51°22.664 3°3.359 12.7299 3.723696 31.514528 -3.020363
2011-11-07 07:27:41 51°22.674 3°3.384 12.7266 3.724939 31.526227 -3.020363
2011-11-07 07:27:45 51°22.68 3°3.4 12.7298 3.725146 31.528177 -3.020363
2011-11-07 07:27:51 51°22.69 3°3.424 12.7289 3.725146 31.528177 -3.020363
2011-11-07 07:27:56 51°22.698 3°3.444 12.7276 3.724939 31.525514 -3.020363
2011-11-07 07:28:01 51°22.707 3°3.465 12.7262 3.723075 31.508678 -3.020363
2011-11-07 07:28:05 51°22.713 3°3.482 12.7269 3.721417 31.492367 -3.020363
2011-11-07 07:28:11 51°22.724 3°3.505 12.7282 3.725457 31.530389 -3.020363
2011-11-07 07:28:15 51°22.731 3°3.522 12.7271 3.726285 31.538189 -3.020363
2011-11-07 07:28:21 51°22.741 3°3.545 12.729 3.726285 31.538189 -3.020363
2011-11-07 07:28:25 51°22.747 3°3.562 12.7269 3.725975 31.535264 -3.020363
2011-11-07 07:28:30 51°22.756 3°3.581 12.7275 3.723696 31.514528 -3.020363
2011-11-07 07:28:36 51°22.766 3°3.605 12.7305 3.72701 31.545729 -3.020363
2011-11-07 07:28:41 51°22.774 3°3.625 12.7289 3.725768 31.534028 -3.020363
2011-11-07 07:28:45 51°22.781 3°3.64 12.7273 3.721417 31.493079 -3.020363
2011-11-07 07:28:50 51°22.789 3°3.66 12.7306 3.721417 31.493079 -3.020363
2011-11-07 07:28:56 51°22.8 3°3.685 12.7281 3.724835 31.525252 -3.020363
2011-11-07 07:29:01 51°22.808 3°3.705 12.7241 3.72235 31.502566 -3.020363
2011-11-07 07:29:05 51°22.815 3°3.72 12.7295 3.724421 31.522066 -3.020363
2011-11-07 07:29:10 51°22.824 3°3.741 12.7254 3.724732 31.524991 -3.020363